<?xml version="1.0" encoding="UTF-8" standalone="no" ?>
<gpx xmlns="http://www.topografix.com/GPX/1/1" xmlns:xsi="http://www.w3.org/2001/XMLSchema-instance" xsi:schemaLocation="http://www.topografix.com/GPX/1/1 http://www.topografix.com/GPX/1/1/gpx.xsd" version="1.1" creator="VisuGPX - https://www.visugpx.com">
  <metadata>
    <name>Randonnée de mes ancêtres - autour de Menet (15)</name>
    <desc><![CDATA[De Saignes en passant par Vebret, Antignac, montée sur Saint Étienne de Chomeil, Riom ès Montagnes par le bois de Vaisseredonde et Pons, Valette, le col de La Beyssiere, Trizac, Le Monteil et retour à Saignes.]]></desc>
  </metadata>
  <trk>
    <name><![CDATA[2013-44 Autour de Menet - Cantal]]></name>
    <desc><![CDATA[Saignes Vebret Saint Etienne de Chomeil Riom es Montagnes Trizac Le Monteil.]]></desc>
    <trkseg>
      <trkpt lat="45.33478" lon="2.47866">
        <ele>491.79998779297</ele>
        <time>2013-07-13T07:14:11.000Z</time>
      </trkpt>
      <trkpt lat="45.33478" lon="2.47866">
        <ele>491.79998779297</ele>
        <time>2013-07-13T07:14:12.000Z</time>
      </trkpt>
      <trkpt lat="45.33477" lon="2.47873">
        <ele>492.20001220703</ele>
        <time>2013-07-13T07:14:27.000Z</time>
      </trkpt>
      <trkpt lat="45.33495" lon="2.47944">
        <ele>494.20001220703</ele>
        <time>2013-07-13T07:14:50.000Z</time>
      </trkpt>
      <trkpt lat="45.33493" lon="2.48019">
        <ele>496.20001220703</ele>
        <time>2013-07-13T07:15:05.000Z</time>
      </trkpt>
      <trkpt lat="45.33489" lon="2.48063">
        <ele>496.20001220703</ele>
        <time>2013-07-13T07:15:14.000Z</time>
      </trkpt>
      <trkpt lat="45.33536" lon="2.48085">
        <ele>493.20001220703</ele>
        <time>2013-07-13T07:15:30.000Z</time>
      </trkpt>
      <trkpt lat="45.33561" lon="2.48029">
        <ele>492.60000610352</ele>
        <time>2013-07-13T07:15:46.000Z</time>
      </trkpt>
      <trkpt lat="45.3357" lon="2.47954">
        <ele>491.79998779297</ele>
        <time>2013-07-13T07:15:57.000Z</time>
      </trkpt>
      <trkpt lat="45.33596" lon="2.47941">
        <ele>490.79998779297</ele>
        <time>2013-07-13T07:16:03.000Z</time>
      </trkpt>
      <trkpt lat="45.33654" lon="2.47935">
        <ele>489.39999389648</ele>
        <time>2013-07-13T07:16:13.000Z</time>
      </trkpt>
      <trkpt lat="45.33666" lon="2.47935">
        <ele>489.20001220703</ele>
        <time>2013-07-13T07:16:15.000Z</time>
      </trkpt>
      <trkpt lat="45.33722" lon="2.47954">
        <ele>487.20001220703</ele>
        <time>2013-07-13T07:16:24.000Z</time>
      </trkpt>
      <trkpt lat="45.33782" lon="2.47972">
        <ele>483.60000610352</ele>
        <time>2013-07-13T07:16:32.000Z</time>
      </trkpt>
      <trkpt lat="45.33822" lon="2.47974">
        <ele>481.20001220703</ele>
        <time>2013-07-13T07:16:37.000Z</time>
      </trkpt>
      <trkpt lat="45.33839" lon="2.4797">
        <ele>480.39999389648</ele>
        <time>2013-07-13T07:16:39.000Z</time>
      </trkpt>
      <trkpt lat="45.33893" lon="2.47945">
        <ele>479.60000610352</ele>
        <time>2013-07-13T07:16:46.000Z</time>
      </trkpt>
      <trkpt lat="45.3395" lon="2.47924">
        <ele>479.39999389648</ele>
        <time>2013-07-13T07:16:54.000Z</time>
      </trkpt>
      <trkpt lat="45.34009" lon="2.47921">
        <ele>478.39999389648</ele>
        <time>2013-07-13T07:17:03.000Z</time>
      </trkpt>
      <trkpt lat="45.34069" lon="2.47937">
        <ele>475.39999389648</ele>
        <time>2013-07-13T07:17:12.000Z</time>
      </trkpt>
      <trkpt lat="45.34128" lon="2.47964">
        <ele>471.79998779297</ele>
        <time>2013-07-13T07:17:19.000Z</time>
      </trkpt>
      <trkpt lat="45.34182" lon="2.48011">
        <ele>467.60000610352</ele>
        <time>2013-07-13T07:17:25.000Z</time>
      </trkpt>
      <trkpt lat="45.34227" lon="2.48057">
        <ele>464.79998779297</ele>
        <time>2013-07-13T07:17:30.000Z</time>
      </trkpt>
      <trkpt lat="45.34248" lon="2.48069">
        <ele>463.60000610352</ele>
        <time>2013-07-13T07:17:32.000Z</time>
      </trkpt>
      <trkpt lat="45.34306" lon="2.48068">
        <ele>463.20001220703</ele>
        <time>2013-07-13T07:17:37.000Z</time>
      </trkpt>
      <trkpt lat="45.34367" lon="2.48054">
        <ele>462</ele>
        <time>2013-07-13T07:17:43.000Z</time>
      </trkpt>
      <trkpt lat="45.34417" lon="2.48021">
        <ele>461.39999389648</ele>
        <time>2013-07-13T07:17:49.000Z</time>
      </trkpt>
      <trkpt lat="45.3446" lon="2.47971">
        <ele>460</ele>
        <time>2013-07-13T07:17:56.000Z</time>
      </trkpt>
      <trkpt lat="45.34508" lon="2.47916">
        <ele>455.79998779297</ele>
        <time>2013-07-13T07:18:04.000Z</time>
      </trkpt>
      <trkpt lat="45.34552" lon="2.47866">
        <ele>456</ele>
        <time>2013-07-13T07:18:12.000Z</time>
      </trkpt>
      <trkpt lat="45.34604" lon="2.47828">
        <ele>452.60000610352</ele>
        <time>2013-07-13T07:18:19.000Z</time>
      </trkpt>
      <trkpt lat="45.34659" lon="2.47818">
        <ele>449</ele>
        <time>2013-07-13T07:18:25.000Z</time>
      </trkpt>
      <trkpt lat="45.34721" lon="2.47819">
        <ele>447.20001220703</ele>
        <time>2013-07-13T07:18:31.000Z</time>
      </trkpt>
      <trkpt lat="45.34731" lon="2.47816">
        <ele>447</ele>
        <time>2013-07-13T07:18:32.000Z</time>
      </trkpt>
      <trkpt lat="45.34775" lon="2.47788">
        <ele>445</ele>
        <time>2013-07-13T07:18:37.000Z</time>
      </trkpt>
      <trkpt lat="45.34821" lon="2.47732">
        <ele>443.20001220703</ele>
        <time>2013-07-13T07:18:44.000Z</time>
      </trkpt>
      <trkpt lat="45.34865" lon="2.47681">
        <ele>446.39999389648</ele>
        <time>2013-07-13T07:18:52.000Z</time>
      </trkpt>
      <trkpt lat="45.34891" lon="2.47644">
        <ele>449.60000610352</ele>
        <time>2013-07-13T07:18:59.000Z</time>
      </trkpt>
      <trkpt lat="45.34899" lon="2.47629">
        <ele>450.39999389648</ele>
        <time>2013-07-13T07:19:03.000Z</time>
      </trkpt>
      <trkpt lat="45.34903" lon="2.47662">
        <ele>451.20001220703</ele>
        <time>2013-07-13T07:19:10.000Z</time>
      </trkpt>
      <trkpt lat="45.34902" lon="2.47671">
        <ele>451</ele>
        <time>2013-07-13T07:19:11.000Z</time>
      </trkpt>
      <trkpt lat="45.34902" lon="2.4771">
        <ele>449.79998779297</ele>
        <time>2013-07-13T07:19:15.000Z</time>
      </trkpt>
      <trkpt lat="45.34921" lon="2.47782">
        <ele>448.79998779297</ele>
        <time>2013-07-13T07:19:23.000Z</time>
      </trkpt>
      <trkpt lat="45.34932" lon="2.47858">
        <ele>448.20001220703</ele>
        <time>2013-07-13T07:19:33.000Z</time>
      </trkpt>
      <trkpt lat="45.34942" lon="2.47939">
        <ele>450.20001220703</ele>
        <time>2013-07-13T07:19:44.000Z</time>
      </trkpt>
      <trkpt lat="45.34952" lon="2.48018">
        <ele>452.79998779297</ele>
        <time>2013-07-13T07:19:55.000Z</time>
      </trkpt>
      <trkpt lat="45.34962" lon="2.48095">
        <ele>455</ele>
        <time>2013-07-13T07:20:06.000Z</time>
      </trkpt>
      <trkpt lat="45.34978" lon="2.48171">
        <ele>456.39999389648</ele>
        <time>2013-07-13T07:20:16.000Z</time>
      </trkpt>
      <trkpt lat="45.35" lon="2.48247">
        <ele>455</ele>
        <time>2013-07-13T07:20:26.000Z</time>
      </trkpt>
      <trkpt lat="45.35027" lon="2.48314">
        <ele>457.60000610352</ele>
        <time>2013-07-13T07:20:36.000Z</time>
      </trkpt>
      <trkpt lat="45.35046" lon="2.4839">
        <ele>459.60000610352</ele>
        <time>2013-07-13T07:20:47.000Z</time>
      </trkpt>
      <trkpt lat="45.35048" lon="2.4846">
        <ele>460.79998779297</ele>
        <time>2013-07-13T07:20:58.000Z</time>
      </trkpt>
      <trkpt lat="45.3503" lon="2.48539">
        <ele>460.39999389648</ele>
        <time>2013-07-13T07:21:09.000Z</time>
      </trkpt>
      <trkpt lat="45.35018" lon="2.4862">
        <ele>460</ele>
        <time>2013-07-13T07:21:20.000Z</time>
      </trkpt>
      <trkpt lat="45.35006" lon="2.48695">
        <ele>461.39999389648</ele>
        <time>2013-07-13T07:21:30.000Z</time>
      </trkpt>
      <trkpt lat="45.34988" lon="2.4877">
        <ele>462.60000610352</ele>
        <time>2013-07-13T07:21:40.000Z</time>
      </trkpt>
      <trkpt lat="45.34968" lon="2.48848">
        <ele>460.39999389648</ele>
        <time>2013-07-13T07:21:50.000Z</time>
      </trkpt>
      <trkpt lat="45.34962" lon="2.48924">
        <ele>460.79998779297</ele>
        <time>2013-07-13T07:21:58.000Z</time>
      </trkpt>
      <trkpt lat="45.34962" lon="2.49003">
        <ele>460.20001220703</ele>
        <time>2013-07-13T07:22:06.000Z</time>
      </trkpt>
      <trkpt lat="45.34963" lon="2.49085">
        <ele>460.20001220703</ele>
        <time>2013-07-13T07:22:15.000Z</time>
      </trkpt>
      <trkpt lat="45.34959" lon="2.49164">
        <ele>462.39999389648</ele>
        <time>2013-07-13T07:22:25.000Z</time>
      </trkpt>
      <trkpt lat="45.34947" lon="2.49191">
        <ele>462.39999389648</ele>
        <time>2013-07-13T07:22:29.000Z</time>
      </trkpt>
      <trkpt lat="45.34907" lon="2.49253">
        <ele>462.39999389648</ele>
        <time>2013-07-13T07:22:39.000Z</time>
      </trkpt>
      <trkpt lat="45.3487" lon="2.49312">
        <ele>461.39999389648</ele>
        <time>2013-07-13T07:22:48.000Z</time>
      </trkpt>
      <trkpt lat="45.34836" lon="2.49373">
        <ele>461</ele>
        <time>2013-07-13T07:22:57.000Z</time>
      </trkpt>
      <trkpt lat="45.3482" lon="2.49412">
        <ele>460.39999389648</ele>
        <time>2013-07-13T07:23:02.000Z</time>
      </trkpt>
      <trkpt lat="45.34813" lon="2.49466">
        <ele>460.60000610352</ele>
        <time>2013-07-13T07:23:08.000Z</time>
      </trkpt>
      <trkpt lat="45.34815" lon="2.49501">
        <ele>461</ele>
        <time>2013-07-13T07:23:12.000Z</time>
      </trkpt>
      <trkpt lat="45.34829" lon="2.49575">
        <ele>462.60000610352</ele>
        <time>2013-07-13T07:23:21.000Z</time>
      </trkpt>
      <trkpt lat="45.34846" lon="2.49653">
        <ele>464.20001220703</ele>
        <time>2013-07-13T07:23:31.000Z</time>
      </trkpt>
      <trkpt lat="45.34862" lon="2.49728">
        <ele>466</ele>
        <time>2013-07-13T07:23:41.000Z</time>
      </trkpt>
      <trkpt lat="45.34879" lon="2.49806">
        <ele>466.20001220703</ele>
        <time>2013-07-13T07:23:51.000Z</time>
      </trkpt>
      <trkpt lat="45.34897" lon="2.49878">
        <ele>464.60000610352</ele>
        <time>2013-07-13T07:23:59.000Z</time>
      </trkpt>
      <trkpt lat="45.34909" lon="2.49928">
        <ele>463.60000610352</ele>
        <time>2013-07-13T07:24:04.000Z</time>
      </trkpt>
      <trkpt lat="45.34899" lon="2.50005">
        <ele>462.39999389648</ele>
        <time>2013-07-13T07:24:12.000Z</time>
      </trkpt>
      <trkpt lat="45.34883" lon="2.50081">
        <ele>462.20001220703</ele>
        <time>2013-07-13T07:24:21.000Z</time>
      </trkpt>
      <trkpt lat="45.34878" lon="2.50162">
        <ele>461.60000610352</ele>
        <time>2013-07-13T07:24:30.000Z</time>
      </trkpt>
      <trkpt lat="45.34874" lon="2.50242">
        <ele>462.20001220703</ele>
        <time>2013-07-13T07:24:39.000Z</time>
      </trkpt>
      <trkpt lat="45.34871" lon="2.50323">
        <ele>461.79998779297</ele>
        <time>2013-07-13T07:24:48.000Z</time>
      </trkpt>
      <trkpt lat="45.34866" lon="2.50406">
        <ele>462.60000610352</ele>
        <time>2013-07-13T07:24:57.000Z</time>
      </trkpt>
      <trkpt lat="45.34845" lon="2.50482">
        <ele>463</ele>
        <time>2013-07-13T07:25:06.000Z</time>
      </trkpt>
      <trkpt lat="45.3482" lon="2.50554">
        <ele>463.39999389648</ele>
        <time>2013-07-13T07:25:15.000Z</time>
      </trkpt>
      <trkpt lat="45.34793" lon="2.50622">
        <ele>464.20001220703</ele>
        <time>2013-07-13T07:25:24.000Z</time>
      </trkpt>
      <trkpt lat="45.34757" lon="2.50685">
        <ele>465.60000610352</ele>
        <time>2013-07-13T07:25:33.000Z</time>
      </trkpt>
      <trkpt lat="45.3472" lon="2.50748">
        <ele>466.39999389648</ele>
        <time>2013-07-13T07:25:42.000Z</time>
      </trkpt>
      <trkpt lat="45.3469" lon="2.50815">
        <ele>465.39999389648</ele>
        <time>2013-07-13T07:25:51.000Z</time>
      </trkpt>
      <trkpt lat="45.34672" lon="2.5089">
        <ele>465.60000610352</ele>
        <time>2013-07-13T07:26:00.000Z</time>
      </trkpt>
      <trkpt lat="45.34658" lon="2.50967">
        <ele>466.79998779297</ele>
        <time>2013-07-13T07:26:09.000Z</time>
      </trkpt>
      <trkpt lat="45.34655" lon="2.50975">
        <ele>467</ele>
        <time>2013-07-13T07:26:10.000Z</time>
      </trkpt>
      <trkpt lat="45.34636" lon="2.51009">
        <ele>467.39999389648</ele>
        <time>2013-07-13T07:26:15.000Z</time>
      </trkpt>
      <trkpt lat="45.34591" lon="2.51062">
        <ele>467.60000610352</ele>
        <time>2013-07-13T07:26:25.000Z</time>
      </trkpt>
      <trkpt lat="45.34559" lon="2.51125">
        <ele>468.20001220703</ele>
        <time>2013-07-13T07:26:34.000Z</time>
      </trkpt>
      <trkpt lat="45.34537" lon="2.51198">
        <ele>469.39999389648</ele>
        <time>2013-07-13T07:26:43.000Z</time>
      </trkpt>
      <trkpt lat="45.3451" lon="2.51272">
        <ele>470.39999389648</ele>
        <time>2013-07-13T07:26:53.000Z</time>
      </trkpt>
      <trkpt lat="45.34495" lon="2.51297">
        <ele>469.79998779297</ele>
        <time>2013-07-13T07:26:57.000Z</time>
      </trkpt>
      <trkpt lat="45.34458" lon="2.51354">
        <ele>469.60000610352</ele>
        <time>2013-07-13T07:27:07.000Z</time>
      </trkpt>
      <trkpt lat="45.34419" lon="2.51416">
        <ele>469</ele>
        <time>2013-07-13T07:27:17.000Z</time>
      </trkpt>
      <trkpt lat="45.34409" lon="2.51446">
        <ele>469.79998779297</ele>
        <time>2013-07-13T07:27:21.000Z</time>
      </trkpt>
      <trkpt lat="45.34403" lon="2.51497">
        <ele>471.39999389648</ele>
        <time>2013-07-13T07:27:27.000Z</time>
      </trkpt>
      <trkpt lat="45.34409" lon="2.51575">
        <ele>470.79998779297</ele>
        <time>2013-07-13T07:27:42.000Z</time>
      </trkpt>
      <trkpt lat="45.34409" lon="2.51576">
        <ele>470.79998779297</ele>
        <time>2013-07-13T07:27:44.000Z</time>
      </trkpt>
      <trkpt lat="45.34404" lon="2.5158">
        <ele>470.60000610352</ele>
        <time>2013-07-13T07:29:10.000Z</time>
      </trkpt>
      <trkpt lat="45.34404" lon="2.51663">
        <ele>472.39999389648</ele>
        <time>2013-07-13T07:29:24.000Z</time>
      </trkpt>
      <trkpt lat="45.34395" lon="2.51746">
        <ele>472.79998779297</ele>
        <time>2013-07-13T07:29:34.000Z</time>
      </trkpt>
      <trkpt lat="45.34387" lon="2.51794">
        <ele>473.39999389648</ele>
        <time>2013-07-13T07:29:40.000Z</time>
      </trkpt>
      <trkpt lat="45.34376" lon="2.51875">
        <ele>475.20001220703</ele>
        <time>2013-07-13T07:29:50.000Z</time>
      </trkpt>
      <trkpt lat="45.34352" lon="2.51913">
        <ele>475.60000610352</ele>
        <time>2013-07-13T07:29:56.000Z</time>
      </trkpt>
      <trkpt lat="45.34315" lon="2.51978">
        <ele>476.20001220703</ele>
        <time>2013-07-13T07:30:05.000Z</time>
      </trkpt>
      <trkpt lat="45.34296" lon="2.52028">
        <ele>477.20001220703</ele>
        <time>2013-07-13T07:30:12.000Z</time>
      </trkpt>
      <trkpt lat="45.34287" lon="2.52107">
        <ele>482</ele>
        <time>2013-07-13T07:30:22.000Z</time>
      </trkpt>
      <trkpt lat="45.34274" lon="2.52187">
        <ele>486.79998779297</ele>
        <time>2013-07-13T07:30:32.000Z</time>
      </trkpt>
      <trkpt lat="45.34263" lon="2.52262">
        <ele>487.60000610352</ele>
        <time>2013-07-13T07:30:42.000Z</time>
      </trkpt>
      <trkpt lat="45.34263" lon="2.523">
        <ele>487.60000610352</ele>
        <time>2013-07-13T07:30:47.000Z</time>
      </trkpt>
      <trkpt lat="45.34268" lon="2.52333">
        <ele>488.79998779297</ele>
        <time>2013-07-13T07:30:51.000Z</time>
      </trkpt>
      <trkpt lat="45.34292" lon="2.52405">
        <ele>490</ele>
        <time>2013-07-13T07:31:00.000Z</time>
      </trkpt>
      <trkpt lat="45.34317" lon="2.52454">
        <ele>490.60000610352</ele>
        <time>2013-07-13T07:31:06.000Z</time>
      </trkpt>
      <trkpt lat="45.34329" lon="2.5253">
        <ele>487</ele>
        <time>2013-07-13T07:31:14.000Z</time>
      </trkpt>
      <trkpt lat="45.34334" lon="2.52613">
        <ele>485</ele>
        <time>2013-07-13T07:31:23.000Z</time>
      </trkpt>
      <trkpt lat="45.34332" lon="2.52658">
        <ele>484.79998779297</ele>
        <time>2013-07-13T07:31:28.000Z</time>
      </trkpt>
      <trkpt lat="45.34328" lon="2.52734">
        <ele>483</ele>
        <time>2013-07-13T07:31:37.000Z</time>
      </trkpt>
      <trkpt lat="45.34344" lon="2.52815">
        <ele>483.39999389648</ele>
        <time>2013-07-13T07:31:47.000Z</time>
      </trkpt>
      <trkpt lat="45.34362" lon="2.52887">
        <ele>486.60000610352</ele>
        <time>2013-07-13T07:31:57.000Z</time>
      </trkpt>
      <trkpt lat="45.34365" lon="2.52893">
        <ele>487</ele>
        <time>2013-07-13T07:31:58.000Z</time>
      </trkpt>
      <trkpt lat="45.34371" lon="2.52953">
        <ele>488.60000610352</ele>
        <time>2013-07-13T07:32:09.000Z</time>
      </trkpt>
      <trkpt lat="45.34338" lon="2.53015">
        <ele>485.79998779297</ele>
        <time>2013-07-13T07:32:18.000Z</time>
      </trkpt>
      <trkpt lat="45.34303" lon="2.53082">
        <ele>489</ele>
        <time>2013-07-13T07:32:28.000Z</time>
      </trkpt>
      <trkpt lat="45.34272" lon="2.53154">
        <ele>493.39999389648</ele>
        <time>2013-07-13T07:32:38.000Z</time>
      </trkpt>
      <trkpt lat="45.34253" lon="2.53227">
        <ele>494.20001220703</ele>
        <time>2013-07-13T07:32:47.000Z</time>
      </trkpt>
      <trkpt lat="45.34243" lon="2.53305">
        <ele>493.60000610352</ele>
        <time>2013-07-13T07:32:56.000Z</time>
      </trkpt>
      <trkpt lat="45.34235" lon="2.53382">
        <ele>494.60000610352</ele>
        <time>2013-07-13T07:33:05.000Z</time>
      </trkpt>
      <trkpt lat="45.34228" lon="2.5346">
        <ele>496.60000610352</ele>
        <time>2013-07-13T07:33:14.000Z</time>
      </trkpt>
      <trkpt lat="45.3422" lon="2.53539">
        <ele>494.39999389648</ele>
        <time>2013-07-13T07:33:23.000Z</time>
      </trkpt>
      <trkpt lat="45.34206" lon="2.53622">
        <ele>489.60000610352</ele>
        <time>2013-07-13T07:33:32.000Z</time>
      </trkpt>
      <trkpt lat="45.34188" lon="2.53699">
        <ele>489</ele>
        <time>2013-07-13T07:33:41.000Z</time>
      </trkpt>
      <trkpt lat="45.34168" lon="2.53771">
        <ele>490.39999389648</ele>
        <time>2013-07-13T07:33:50.000Z</time>
      </trkpt>
      <trkpt lat="45.3414" lon="2.53844">
        <ele>491</ele>
        <time>2013-07-13T07:34:00.000Z</time>
      </trkpt>
      <trkpt lat="45.34104" lon="2.53912">
        <ele>489.60000610352</ele>
        <time>2013-07-13T07:34:10.000Z</time>
      </trkpt>
      <trkpt lat="45.34067" lon="2.53977">
        <ele>491</ele>
        <time>2013-07-13T07:34:20.000Z</time>
      </trkpt>
      <trkpt lat="45.3403" lon="2.5404">
        <ele>492.39999389648</ele>
        <time>2013-07-13T07:34:30.000Z</time>
      </trkpt>
      <trkpt lat="45.33992" lon="2.54105">
        <ele>494.79998779297</ele>
        <time>2013-07-13T07:34:40.000Z</time>
      </trkpt>
      <trkpt lat="45.33956" lon="2.5417">
        <ele>500.60000610352</ele>
        <time>2013-07-13T07:34:50.000Z</time>
      </trkpt>
      <trkpt lat="45.33919" lon="2.54232">
        <ele>501.39999389648</ele>
        <time>2013-07-13T07:35:00.000Z</time>
      </trkpt>
      <trkpt lat="45.33886" lon="2.543">
        <ele>502.60000610352</ele>
        <time>2013-07-13T07:35:10.000Z</time>
      </trkpt>
      <trkpt lat="45.33866" lon="2.54378">
        <ele>498.60000610352</ele>
        <time>2013-07-13T07:35:20.000Z</time>
      </trkpt>
      <trkpt lat="45.33858" lon="2.54462">
        <ele>497.39999389648</ele>
        <time>2013-07-13T07:35:30.000Z</time>
      </trkpt>
      <trkpt lat="45.33862" lon="2.54541">
        <ele>498.20001220703</ele>
        <time>2013-07-13T07:35:39.000Z</time>
      </trkpt>
      <trkpt lat="45.33875" lon="2.54622">
        <ele>499.20001220703</ele>
        <time>2013-07-13T07:35:49.000Z</time>
      </trkpt>
      <trkpt lat="45.3389" lon="2.54701">
        <ele>501.39999389648</ele>
        <time>2013-07-13T07:35:59.000Z</time>
      </trkpt>
      <trkpt lat="45.33905" lon="2.54779">
        <ele>506</ele>
        <time>2013-07-13T07:36:10.000Z</time>
      </trkpt>
      <trkpt lat="45.33919" lon="2.54853">
        <ele>511</ele>
        <time>2013-07-13T07:36:22.000Z</time>
      </trkpt>
      <trkpt lat="45.33933" lon="2.54932">
        <ele>515.20001220703</ele>
        <time>2013-07-13T07:36:36.000Z</time>
      </trkpt>
      <trkpt lat="45.33947" lon="2.55008">
        <ele>515.79998779297</ele>
        <time>2013-07-13T07:36:50.000Z</time>
      </trkpt>
      <trkpt lat="45.33961" lon="2.55083">
        <ele>515.40002441406</ele>
        <time>2013-07-13T07:37:04.000Z</time>
      </trkpt>
      <trkpt lat="45.33972" lon="2.55161">
        <ele>523</ele>
        <time>2013-07-13T07:37:19.000Z</time>
      </trkpt>
      <trkpt lat="45.33974" lon="2.55241">
        <ele>525</ele>
        <time>2013-07-13T07:37:32.000Z</time>
      </trkpt>
      <trkpt lat="45.33965" lon="2.5532">
        <ele>526.20001220703</ele>
        <time>2013-07-13T07:37:45.000Z</time>
      </trkpt>
      <trkpt lat="45.33952" lon="2.55398">
        <ele>526</ele>
        <time>2013-07-13T07:37:58.000Z</time>
      </trkpt>
      <trkpt lat="45.33942" lon="2.55478">
        <ele>526</ele>
        <time>2013-07-13T07:38:11.000Z</time>
      </trkpt>
      <trkpt lat="45.3394" lon="2.55556">
        <ele>530.79998779297</ele>
        <time>2013-07-13T07:38:26.000Z</time>
      </trkpt>
      <trkpt lat="45.33941" lon="2.55633">
        <ele>539.20001220703</ele>
        <time>2013-07-13T07:38:41.000Z</time>
      </trkpt>
      <trkpt lat="45.33943" lon="2.55711">
        <ele>549.40002441406</ele>
        <time>2013-07-13T07:38:57.000Z</time>
      </trkpt>
      <trkpt lat="45.33943" lon="2.5579">
        <ele>552.59997558594</ele>
        <time>2013-07-13T07:39:11.000Z</time>
      </trkpt>
      <trkpt lat="45.33944" lon="2.55872">
        <ele>549.59997558594</ele>
        <time>2013-07-13T07:39:24.000Z</time>
      </trkpt>
      <trkpt lat="45.33948" lon="2.55954">
        <ele>546.59997558594</ele>
        <time>2013-07-13T07:39:37.000Z</time>
      </trkpt>
      <trkpt lat="45.33954" lon="2.56035">
        <ele>546.20001220703</ele>
        <time>2013-07-13T07:39:50.000Z</time>
      </trkpt>
      <trkpt lat="45.33957" lon="2.56113">
        <ele>547.20001220703</ele>
        <time>2013-07-13T07:40:02.000Z</time>
      </trkpt>
      <trkpt lat="45.33955" lon="2.56193">
        <ele>546.20001220703</ele>
        <time>2013-07-13T07:40:15.000Z</time>
      </trkpt>
      <trkpt lat="45.33945" lon="2.56273">
        <ele>540</ele>
        <time>2013-07-13T07:40:27.000Z</time>
      </trkpt>
      <trkpt lat="45.33933" lon="2.56351">
        <ele>534</ele>
        <time>2013-07-13T07:40:37.000Z</time>
      </trkpt>
      <trkpt lat="45.33916" lon="2.56437">
        <ele>527.20001220703</ele>
        <time>2013-07-13T07:40:45.000Z</time>
      </trkpt>
      <trkpt lat="45.33898" lon="2.56516">
        <ele>527.20001220703</ele>
        <time>2013-07-13T07:40:51.000Z</time>
      </trkpt>
      <trkpt lat="45.33879" lon="2.56594">
        <ele>526.79998779297</ele>
        <time>2013-07-13T07:40:57.000Z</time>
      </trkpt>
      <trkpt lat="45.33861" lon="2.56673">
        <ele>526.79998779297</ele>
        <time>2013-07-13T07:41:05.000Z</time>
      </trkpt>
      <trkpt lat="45.33841" lon="2.56748">
        <ele>528.20001220703</ele>
        <time>2013-07-13T07:41:18.000Z</time>
      </trkpt>
      <trkpt lat="45.33818" lon="2.5682">
        <ele>532.40002441406</ele>
        <time>2013-07-13T07:41:31.000Z</time>
      </trkpt>
      <trkpt lat="45.33792" lon="2.56893">
        <ele>537.79998779297</ele>
        <time>2013-07-13T07:41:45.000Z</time>
      </trkpt>
      <trkpt lat="45.33765" lon="2.5696">
        <ele>536.20001220703</ele>
        <time>2013-07-13T07:41:57.000Z</time>
      </trkpt>
      <trkpt lat="45.33737" lon="2.5703">
        <ele>530.20001220703</ele>
        <time>2013-07-13T07:42:07.000Z</time>
      </trkpt>
      <trkpt lat="45.33709" lon="2.57101">
        <ele>527.79998779297</ele>
        <time>2013-07-13T07:42:16.000Z</time>
      </trkpt>
      <trkpt lat="45.33681" lon="2.57174">
        <ele>528.59997558594</ele>
        <time>2013-07-13T07:42:25.000Z</time>
      </trkpt>
      <trkpt lat="45.33655" lon="2.57246">
        <ele>533.59997558594</ele>
        <time>2013-07-13T07:42:34.000Z</time>
      </trkpt>
      <trkpt lat="45.33629" lon="2.57319">
        <ele>539</ele>
        <time>2013-07-13T07:42:44.000Z</time>
      </trkpt>
      <trkpt lat="45.33604" lon="2.57391">
        <ele>540.40002441406</ele>
        <time>2013-07-13T07:42:54.000Z</time>
      </trkpt>
      <trkpt lat="45.33577" lon="2.57462">
        <ele>540.20001220703</ele>
        <time>2013-07-13T07:43:04.000Z</time>
      </trkpt>
      <trkpt lat="45.33546" lon="2.57526">
        <ele>542.40002441406</ele>
        <time>2013-07-13T07:43:14.000Z</time>
      </trkpt>
      <trkpt lat="45.33511" lon="2.57588">
        <ele>542.59997558594</ele>
        <time>2013-07-13T07:43:24.000Z</time>
      </trkpt>
      <trkpt lat="45.33478" lon="2.5765">
        <ele>545</ele>
        <time>2013-07-13T07:43:34.000Z</time>
      </trkpt>
      <trkpt lat="45.33455" lon="2.57721">
        <ele>545</ele>
        <time>2013-07-13T07:43:44.000Z</time>
      </trkpt>
      <trkpt lat="45.33437" lon="2.57795">
        <ele>546.20001220703</ele>
        <time>2013-07-13T07:43:57.000Z</time>
      </trkpt>
      <trkpt lat="45.33424" lon="2.57871">
        <ele>549.40002441406</ele>
        <time>2013-07-13T07:44:12.000Z</time>
      </trkpt>
      <trkpt lat="45.33425" lon="2.5795">
        <ele>555</ele>
        <time>2013-07-13T07:44:27.000Z</time>
      </trkpt>
      <trkpt lat="45.3344" lon="2.58024">
        <ele>560.79998779297</ele>
        <time>2013-07-13T07:44:42.000Z</time>
      </trkpt>
      <trkpt lat="45.33466" lon="2.58092">
        <ele>564</ele>
        <time>2013-07-13T07:44:58.000Z</time>
      </trkpt>
      <trkpt lat="45.33491" lon="2.5816">
        <ele>565</ele>
        <time>2013-07-13T07:45:15.000Z</time>
      </trkpt>
      <trkpt lat="45.33512" lon="2.58235">
        <ele>566.79998779297</ele>
        <time>2013-07-13T07:45:29.000Z</time>
      </trkpt>
      <trkpt lat="45.33525" lon="2.58314">
        <ele>565.40002441406</ele>
        <time>2013-07-13T07:45:42.000Z</time>
      </trkpt>
      <trkpt lat="45.33525" lon="2.58351">
        <ele>563.79998779297</ele>
        <time>2013-07-13T07:45:47.000Z</time>
      </trkpt>
      <trkpt lat="45.33509" lon="2.58433">
        <ele>558.59997558594</ele>
        <time>2013-07-13T07:45:57.000Z</time>
      </trkpt>
      <trkpt lat="45.33473" lon="2.58495">
        <ele>558.20001220703</ele>
        <time>2013-07-13T07:46:06.000Z</time>
      </trkpt>
      <trkpt lat="45.33425" lon="2.58542">
        <ele>560.79998779297</ele>
        <time>2013-07-13T07:46:15.000Z</time>
      </trkpt>
      <trkpt lat="45.3337" lon="2.58578">
        <ele>561.59997558594</ele>
        <time>2013-07-13T07:46:24.000Z</time>
      </trkpt>
      <trkpt lat="45.33316" lon="2.5861">
        <ele>560.59997558594</ele>
        <time>2013-07-13T07:46:33.000Z</time>
      </trkpt>
      <trkpt lat="45.33264" lon="2.5864">
        <ele>559.79998779297</ele>
        <time>2013-07-13T07:46:42.000Z</time>
      </trkpt>
      <trkpt lat="45.33211" lon="2.58668">
        <ele>558</ele>
        <time>2013-07-13T07:46:52.000Z</time>
      </trkpt>
      <trkpt lat="45.33158" lon="2.58686">
        <ele>554.20001220703</ele>
        <time>2013-07-13T07:47:04.000Z</time>
      </trkpt>
      <trkpt lat="45.33156" lon="2.58762">
        <ele>559</ele>
        <time>2013-07-13T07:47:21.000Z</time>
      </trkpt>
      <trkpt lat="45.33154" lon="2.5884">
        <ele>562.40002441406</ele>
        <time>2013-07-13T07:47:44.000Z</time>
      </trkpt>
      <trkpt lat="45.33152" lon="2.58918">
        <ele>566.40002441406</ele>
        <time>2013-07-13T07:48:09.000Z</time>
      </trkpt>
      <trkpt lat="45.33156" lon="2.58996">
        <ele>578.79998779297</ele>
        <time>2013-07-13T07:48:35.000Z</time>
      </trkpt>
      <trkpt lat="45.33192" lon="2.59051">
        <ele>590.20001220703</ele>
        <time>2013-07-13T07:49:03.000Z</time>
      </trkpt>
      <trkpt lat="45.33245" lon="2.59065">
        <ele>595</ele>
        <time>2013-07-13T07:49:33.000Z</time>
      </trkpt>
      <trkpt lat="45.33291" lon="2.59025">
        <ele>598.20001220703</ele>
        <time>2013-07-13T07:50:01.000Z</time>
      </trkpt>
      <trkpt lat="45.33313" lon="2.58954">
        <ele>600.20001220703</ele>
        <time>2013-07-13T07:50:29.000Z</time>
      </trkpt>
      <trkpt lat="45.33353" lon="2.5892">
        <ele>613.59997558594</ele>
        <time>2013-07-13T07:50:57.000Z</time>
      </trkpt>
      <trkpt lat="45.33366" lon="2.58952">
        <ele>617.59997558594</ele>
        <time>2013-07-13T07:51:13.000Z</time>
      </trkpt>
      <trkpt lat="45.33425" lon="2.59163">
        <ele>624.59997558594</ele>
        <time>2013-07-13T07:57:21.000Z</time>
      </trkpt>
      <trkpt lat="45.33446" lon="2.59165">
        <ele>626.40002441406</ele>
        <time>2013-07-13T07:57:35.000Z</time>
      </trkpt>
      <trkpt lat="45.33453" lon="2.59167">
        <ele>627</ele>
        <time>2013-07-13T07:57:39.000Z</time>
      </trkpt>
      <trkpt lat="45.33506" lon="2.5918">
        <ele>631</ele>
        <time>2013-07-13T07:58:09.000Z</time>
      </trkpt>
      <trkpt lat="45.33551" lon="2.59223">
        <ele>635.79998779297</ele>
        <time>2013-07-13T07:58:38.000Z</time>
      </trkpt>
      <trkpt lat="45.33593" lon="2.5927">
        <ele>640.40002441406</ele>
        <time>2013-07-13T07:59:07.000Z</time>
      </trkpt>
      <trkpt lat="45.33635" lon="2.59318">
        <ele>644.79998779297</ele>
        <time>2013-07-13T07:59:36.000Z</time>
      </trkpt>
      <trkpt lat="45.33678" lon="2.59367">
        <ele>649</ele>
        <time>2013-07-13T08:00:06.000Z</time>
      </trkpt>
      <trkpt lat="45.33701" lon="2.59437">
        <ele>651.20001220703</ele>
        <time>2013-07-13T08:00:34.000Z</time>
      </trkpt>
      <trkpt lat="45.3371" lon="2.59512">
        <ele>655.79998779297</ele>
        <time>2013-07-13T08:01:02.000Z</time>
      </trkpt>
      <trkpt lat="45.33707" lon="2.59591">
        <ele>661.20001220703</ele>
        <time>2013-07-13T08:01:30.000Z</time>
      </trkpt>
      <trkpt lat="45.33675" lon="2.59652">
        <ele>660.20001220703</ele>
        <time>2013-07-13T08:01:58.000Z</time>
      </trkpt>
      <trkpt lat="45.33643" lon="2.59713">
        <ele>663</ele>
        <time>2013-07-13T08:02:27.000Z</time>
      </trkpt>
      <trkpt lat="45.33669" lon="2.5977">
        <ele>673.40002441406</ele>
        <time>2013-07-13T08:02:56.000Z</time>
      </trkpt>
      <trkpt lat="45.33714" lon="2.59728">
        <ele>674.20001220703</ele>
        <time>2013-07-13T08:03:24.000Z</time>
      </trkpt>
      <trkpt lat="45.33767" lon="2.59718">
        <ele>682</ele>
        <time>2013-07-13T08:03:51.000Z</time>
      </trkpt>
      <trkpt lat="45.33806" lon="2.59668">
        <ele>686.40002441406</ele>
        <time>2013-07-13T08:04:19.000Z</time>
      </trkpt>
      <trkpt lat="45.33848" lon="2.59623">
        <ele>689.59997558594</ele>
        <time>2013-07-13T08:04:47.000Z</time>
      </trkpt>
      <trkpt lat="45.33902" lon="2.5963">
        <ele>697.59997558594</ele>
        <time>2013-07-13T08:05:15.000Z</time>
      </trkpt>
      <trkpt lat="45.33955" lon="2.59607">
        <ele>699.59997558594</ele>
        <time>2013-07-13T08:05:43.000Z</time>
      </trkpt>
      <trkpt lat="45.34008" lon="2.59588">
        <ele>699.59997558594</ele>
        <time>2013-07-13T08:06:08.000Z</time>
      </trkpt>
      <trkpt lat="45.34037" lon="2.59601">
        <ele>698.20001220703</ele>
        <time>2013-07-13T08:06:17.000Z</time>
      </trkpt>
      <trkpt lat="45.34059" lon="2.59644">
        <ele>697.40002441406</ele>
        <time>2013-07-13T08:06:24.000Z</time>
      </trkpt>
      <trkpt lat="45.34083" lon="2.59716">
        <ele>697.79998779297</ele>
        <time>2013-07-13T08:06:33.000Z</time>
      </trkpt>
      <trkpt lat="45.34117" lon="2.59775">
        <ele>701.20001220703</ele>
        <time>2013-07-13T08:06:48.000Z</time>
      </trkpt>
      <trkpt lat="45.34171" lon="2.59778">
        <ele>705</ele>
        <time>2013-07-13T08:07:12.000Z</time>
      </trkpt>
      <trkpt lat="45.34217" lon="2.59737">
        <ele>711.20001220703</ele>
        <time>2013-07-13T08:07:36.000Z</time>
      </trkpt>
      <trkpt lat="45.34242" lon="2.59667">
        <ele>711.40002441406</ele>
        <time>2013-07-13T08:08:00.000Z</time>
      </trkpt>
      <trkpt lat="45.34273" lon="2.59663">
        <ele>720.20001220703</ele>
        <time>2013-07-13T08:08:24.000Z</time>
      </trkpt>
      <trkpt lat="45.34242" lon="2.59724">
        <ele>715.40002441406</ele>
        <time>2013-07-13T08:08:47.000Z</time>
      </trkpt>
      <trkpt lat="45.34244" lon="2.59795">
        <ele>719.40002441406</ele>
        <time>2013-07-13T08:09:12.000Z</time>
      </trkpt>
      <trkpt lat="45.34288" lon="2.5984">
        <ele>730.59997558594</ele>
        <time>2013-07-13T08:09:37.000Z</time>
      </trkpt>
      <trkpt lat="45.34315" lon="2.59906">
        <ele>736.40002441406</ele>
        <time>2013-07-13T08:10:04.000Z</time>
      </trkpt>
      <trkpt lat="45.34304" lon="2.5998">
        <ele>737.79998779297</ele>
        <time>2013-07-13T08:10:30.000Z</time>
      </trkpt>
      <trkpt lat="45.34277" lon="2.6005">
        <ele>736.79998779297</ele>
        <time>2013-07-13T08:10:57.000Z</time>
      </trkpt>
      <trkpt lat="45.34277" lon="2.60127">
        <ele>736</ele>
        <time>2013-07-13T08:11:18.000Z</time>
      </trkpt>
      <trkpt lat="45.34291" lon="2.60203">
        <ele>736.20001220703</ele>
        <time>2013-07-13T08:11:36.000Z</time>
      </trkpt>
      <trkpt lat="45.34294" lon="2.60279">
        <ele>734.40002441406</ele>
        <time>2013-07-13T08:11:53.000Z</time>
      </trkpt>
      <trkpt lat="45.34295" lon="2.6031">
        <ele>733.40002441406</ele>
        <time>2013-07-13T08:11:58.000Z</time>
      </trkpt>
      <trkpt lat="45.3429" lon="2.60394">
        <ele>732.59997558594</ele>
        <time>2013-07-13T08:12:09.000Z</time>
      </trkpt>
      <trkpt lat="45.34289" lon="2.60402">
        <ele>732.40002441406</ele>
        <time>2013-07-13T08:12:10.000Z</time>
      </trkpt>
      <trkpt lat="45.34269" lon="2.60454">
        <ele>731.20001220703</ele>
        <time>2013-07-13T08:12:19.000Z</time>
      </trkpt>
      <trkpt lat="45.34251" lon="2.60513">
        <ele>729.40002441406</ele>
        <time>2013-07-13T08:12:31.000Z</time>
      </trkpt>
      <trkpt lat="45.3426" lon="2.60592">
        <ele>732.40002441406</ele>
        <time>2013-07-13T08:12:42.000Z</time>
      </trkpt>
      <trkpt lat="45.34259" lon="2.60606">
        <ele>732</ele>
        <time>2013-07-13T08:12:44.000Z</time>
      </trkpt>
      <trkpt lat="45.34255" lon="2.60626">
        <ele>731.20001220703</ele>
        <time>2013-07-13T08:12:47.000Z</time>
      </trkpt>
      <trkpt lat="45.34229" lon="2.60694">
        <ele>730.20001220703</ele>
        <time>2013-07-13T08:13:03.000Z</time>
      </trkpt>
      <trkpt lat="45.34198" lon="2.6076">
        <ele>731.40002441406</ele>
        <time>2013-07-13T08:13:22.000Z</time>
      </trkpt>
      <trkpt lat="45.34164" lon="2.60821">
        <ele>734.59997558594</ele>
        <time>2013-07-13T08:13:46.000Z</time>
      </trkpt>
      <trkpt lat="45.34129" lon="2.6088">
        <ele>742.20001220703</ele>
        <time>2013-07-13T08:14:13.000Z</time>
      </trkpt>
      <trkpt lat="45.34078" lon="2.60902">
        <ele>746.59997558594</ele>
        <time>2013-07-13T08:14:38.000Z</time>
      </trkpt>
      <trkpt lat="45.3403" lon="2.60919">
        <ele>747.40002441406</ele>
        <time>2013-07-13T08:15:04.000Z</time>
      </trkpt>
      <trkpt lat="45.33991" lon="2.60976">
        <ele>749.59997558594</ele>
        <time>2013-07-13T08:15:31.000Z</time>
      </trkpt>
      <trkpt lat="45.33953" lon="2.61031">
        <ele>747</ele>
        <time>2013-07-13T08:15:57.000Z</time>
      </trkpt>
      <trkpt lat="45.33942" lon="2.61108">
        <ele>751.20001220703</ele>
        <time>2013-07-13T08:16:25.000Z</time>
      </trkpt>
      <trkpt lat="45.33929" lon="2.61183">
        <ele>756</ele>
        <time>2013-07-13T08:16:51.000Z</time>
      </trkpt>
      <trkpt lat="45.33899" lon="2.61246">
        <ele>757.79998779297</ele>
        <time>2013-07-13T08:17:17.000Z</time>
      </trkpt>
      <trkpt lat="45.3388" lon="2.61319">
        <ele>760.79998779297</ele>
        <time>2013-07-13T08:17:42.000Z</time>
      </trkpt>
      <trkpt lat="45.33863" lon="2.61392">
        <ele>762.79998779297</ele>
        <time>2013-07-13T08:18:06.000Z</time>
      </trkpt>
      <trkpt lat="45.33839" lon="2.61461">
        <ele>765.20001220703</ele>
        <time>2013-07-13T08:18:30.000Z</time>
      </trkpt>
      <trkpt lat="45.33812" lon="2.61528">
        <ele>767.79998779297</ele>
        <time>2013-07-13T08:18:53.000Z</time>
      </trkpt>
      <trkpt lat="45.33808" lon="2.61539">
        <ele>768</ele>
        <time>2013-07-13T08:18:59.000Z</time>
      </trkpt>
      <trkpt lat="45.33808" lon="2.61525">
        <ele>766.79998779297</ele>
        <time>2013-07-13T08:25:19.000Z</time>
      </trkpt>
      <trkpt lat="45.33783" lon="2.61597">
        <ele>768</ele>
        <time>2013-07-13T08:25:43.000Z</time>
      </trkpt>
      <trkpt lat="45.33761" lon="2.61671">
        <ele>772.79998779297</ele>
        <time>2013-07-13T08:26:02.000Z</time>
      </trkpt>
      <trkpt lat="45.33729" lon="2.61735">
        <ele>777.40002441406</ele>
        <time>2013-07-13T08:26:23.000Z</time>
      </trkpt>
      <trkpt lat="45.33714" lon="2.6181">
        <ele>785.20001220703</ele>
        <time>2013-07-13T08:26:46.000Z</time>
      </trkpt>
      <trkpt lat="45.33688" lon="2.61879">
        <ele>787.79998779297</ele>
        <time>2013-07-13T08:27:10.000Z</time>
      </trkpt>
      <trkpt lat="45.33659" lon="2.61947">
        <ele>789</ele>
        <time>2013-07-13T08:27:32.000Z</time>
      </trkpt>
      <trkpt lat="45.33657" lon="2.62025">
        <ele>795.79998779297</ele>
        <time>2013-07-13T08:27:53.000Z</time>
      </trkpt>
      <trkpt lat="45.33652" lon="2.62105">
        <ele>805</ele>
        <time>2013-07-13T08:28:15.000Z</time>
      </trkpt>
      <trkpt lat="45.33628" lon="2.62175">
        <ele>810</ele>
        <time>2013-07-13T08:28:35.000Z</time>
      </trkpt>
      <trkpt lat="45.33599" lon="2.62243">
        <ele>811</ele>
        <time>2013-07-13T08:28:58.000Z</time>
      </trkpt>
      <trkpt lat="45.33553" lon="2.62282">
        <ele>809.20001220703</ele>
        <time>2013-07-13T08:29:18.000Z</time>
      </trkpt>
      <trkpt lat="45.33524" lon="2.62346">
        <ele>809.79998779297</ele>
        <time>2013-07-13T08:29:37.000Z</time>
      </trkpt>
      <trkpt lat="45.33505" lon="2.62418">
        <ele>808.59997558594</ele>
        <time>2013-07-13T08:29:56.000Z</time>
      </trkpt>
      <trkpt lat="45.33484" lon="2.62494">
        <ele>816.79998779297</ele>
        <time>2013-07-13T08:30:15.000Z</time>
      </trkpt>
      <trkpt lat="45.33475" lon="2.62573">
        <ele>820.59997558594</ele>
        <time>2013-07-13T08:30:32.000Z</time>
      </trkpt>
      <trkpt lat="45.3345" lon="2.62643">
        <ele>821.20001220703</ele>
        <time>2013-07-13T08:30:48.000Z</time>
      </trkpt>
      <trkpt lat="45.3342" lon="2.6271">
        <ele>817</ele>
        <time>2013-07-13T08:31:04.000Z</time>
      </trkpt>
      <trkpt lat="45.33382" lon="2.62765">
        <ele>827.59997558594</ele>
        <time>2013-07-13T08:31:19.000Z</time>
      </trkpt>
      <trkpt lat="45.3335" lon="2.62834">
        <ele>826.79998779297</ele>
        <time>2013-07-13T08:31:35.000Z</time>
      </trkpt>
      <trkpt lat="45.33318" lon="2.62903">
        <ele>827.79998779297</ele>
        <time>2013-07-13T08:31:50.000Z</time>
      </trkpt>
      <trkpt lat="45.33299" lon="2.62978">
        <ele>831.20001220703</ele>
        <time>2013-07-13T08:32:05.000Z</time>
      </trkpt>
      <trkpt lat="45.3326" lon="2.63031">
        <ele>834.40002441406</ele>
        <time>2013-07-13T08:32:21.000Z</time>
      </trkpt>
      <trkpt lat="45.33213" lon="2.63061">
        <ele>846.40002441406</ele>
        <time>2013-07-13T08:32:51.000Z</time>
      </trkpt>
      <trkpt lat="45.33178" lon="2.63122">
        <ele>849.59997558594</ele>
        <time>2013-07-13T08:33:16.000Z</time>
      </trkpt>
      <trkpt lat="45.33142" lon="2.63181">
        <ele>849.20001220703</ele>
        <time>2013-07-13T08:33:47.000Z</time>
      </trkpt>
      <trkpt lat="45.33104" lon="2.63239">
        <ele>854.40002441406</ele>
        <time>2013-07-13T08:34:16.000Z</time>
      </trkpt>
      <trkpt lat="45.33091" lon="2.63273">
        <ele>854.40002441406</ele>
        <time>2013-07-13T08:34:31.000Z</time>
      </trkpt>
      <trkpt lat="45.33068" lon="2.63343">
        <ele>853.40002441406</ele>
        <time>2013-07-13T08:34:58.000Z</time>
      </trkpt>
      <trkpt lat="45.33041" lon="2.63409">
        <ele>858.20001220703</ele>
        <time>2013-07-13T08:35:28.000Z</time>
      </trkpt>
      <trkpt lat="45.33008" lon="2.63469">
        <ele>862.20001220703</ele>
        <time>2013-07-13T08:35:56.000Z</time>
      </trkpt>
      <trkpt lat="45.32968" lon="2.63521">
        <ele>864.40002441406</ele>
        <time>2013-07-13T08:36:23.000Z</time>
      </trkpt>
      <trkpt lat="45.32941" lon="2.63578">
        <ele>868.79998779297</ele>
        <time>2013-07-13T08:36:52.000Z</time>
      </trkpt>
      <trkpt lat="45.3292" lon="2.63647">
        <ele>868.59997558594</ele>
        <time>2013-07-13T08:37:19.000Z</time>
      </trkpt>
      <trkpt lat="45.3287" lon="2.63683">
        <ele>868.79998779297</ele>
        <time>2013-07-13T08:37:45.000Z</time>
      </trkpt>
      <trkpt lat="45.32816" lon="2.63693">
        <ele>874</ele>
        <time>2013-07-13T08:38:06.000Z</time>
      </trkpt>
      <trkpt lat="45.32763" lon="2.63668">
        <ele>872.40002441406</ele>
        <time>2013-07-13T08:38:26.000Z</time>
      </trkpt>
      <trkpt lat="45.32713" lon="2.63631">
        <ele>875</ele>
        <time>2013-07-13T08:38:41.000Z</time>
      </trkpt>
      <trkpt lat="45.32665" lon="2.6359">
        <ele>874</ele>
        <time>2013-07-13T08:38:53.000Z</time>
      </trkpt>
      <trkpt lat="45.32623" lon="2.63554">
        <ele>872.40002441406</ele>
        <time>2013-07-13T08:39:04.000Z</time>
      </trkpt>
      <trkpt lat="45.32572" lon="2.63528">
        <ele>869.20001220703</ele>
        <time>2013-07-13T08:39:15.000Z</time>
      </trkpt>
      <trkpt lat="45.3253" lon="2.63529">
        <ele>867.79998779297</ele>
        <time>2013-07-13T08:39:23.000Z</time>
      </trkpt>
      <trkpt lat="45.32514" lon="2.63534">
        <ele>867.79998779297</ele>
        <time>2013-07-13T08:39:26.000Z</time>
      </trkpt>
      <trkpt lat="45.32494" lon="2.63547">
        <ele>868.20001220703</ele>
        <time>2013-07-13T08:39:30.000Z</time>
      </trkpt>
      <trkpt lat="45.32446" lon="2.63592">
        <ele>871.20001220703</ele>
        <time>2013-07-13T08:39:40.000Z</time>
      </trkpt>
      <trkpt lat="45.32417" lon="2.63594">
        <ele>870.40002441406</ele>
        <time>2013-07-13T08:39:45.000Z</time>
      </trkpt>
      <trkpt lat="45.32363" lon="2.6359">
        <ele>869.59997558594</ele>
        <time>2013-07-13T08:39:54.000Z</time>
      </trkpt>
      <trkpt lat="45.32315" lon="2.63583">
        <ele>868.79998779297</ele>
        <time>2013-07-13T08:40:02.000Z</time>
      </trkpt>
      <trkpt lat="45.32297" lon="2.63558">
        <ele>867.59997558594</ele>
        <time>2013-07-13T08:40:06.000Z</time>
      </trkpt>
      <trkpt lat="45.32293" lon="2.63553">
        <ele>867.20001220703</ele>
        <time>2013-07-13T08:40:07.000Z</time>
      </trkpt>
      <trkpt lat="45.32256" lon="2.63551">
        <ele>867.40002441406</ele>
        <time>2013-07-13T08:40:14.000Z</time>
      </trkpt>
      <trkpt lat="45.32244" lon="2.63553">
        <ele>867.59997558594</ele>
        <time>2013-07-13T08:40:16.000Z</time>
      </trkpt>
      <trkpt lat="45.32216" lon="2.63554">
        <ele>868</ele>
        <time>2013-07-13T08:40:21.000Z</time>
      </trkpt>
      <trkpt lat="45.3219" lon="2.63584">
        <ele>869.59997558594</ele>
        <time>2013-07-13T08:40:27.000Z</time>
      </trkpt>
      <trkpt lat="45.32153" lon="2.6365">
        <ele>872.20001220703</ele>
        <time>2013-07-13T08:40:38.000Z</time>
      </trkpt>
      <trkpt lat="45.32128" lon="2.63687">
        <ele>876.20001220703</ele>
        <time>2013-07-13T08:40:45.000Z</time>
      </trkpt>
      <trkpt lat="45.32103" lon="2.63701">
        <ele>878.79998779297</ele>
        <time>2013-07-13T08:40:50.000Z</time>
      </trkpt>
      <trkpt lat="45.32098" lon="2.63702">
        <ele>879</ele>
        <time>2013-07-13T08:40:51.000Z</time>
      </trkpt>
      <trkpt lat="45.32044" lon="2.63719">
        <ele>880.20001220703</ele>
        <time>2013-07-13T08:41:03.000Z</time>
      </trkpt>
      <trkpt lat="45.31992" lon="2.63746">
        <ele>881</ele>
        <time>2013-07-13T08:41:15.000Z</time>
      </trkpt>
      <trkpt lat="45.3198" lon="2.63755">
        <ele>881.40002441406</ele>
        <time>2013-07-13T08:41:18.000Z</time>
      </trkpt>
      <trkpt lat="45.31972" lon="2.63761">
        <ele>881.59997558594</ele>
        <time>2013-07-13T08:41:20.000Z</time>
      </trkpt>
      <trkpt lat="45.31946" lon="2.6378">
        <ele>881.79998779297</ele>
        <time>2013-07-13T08:41:27.000Z</time>
      </trkpt>
      <trkpt lat="45.31919" lon="2.63792">
        <ele>880.59997558594</ele>
        <time>2013-07-13T08:41:33.000Z</time>
      </trkpt>
      <trkpt lat="45.31914" lon="2.63792">
        <ele>880.40002441406</ele>
        <time>2013-07-13T08:41:34.000Z</time>
      </trkpt>
      <trkpt lat="45.31904" lon="2.6379">
        <ele>879.79998779297</ele>
        <time>2013-07-13T08:41:36.000Z</time>
      </trkpt>
      <trkpt lat="45.31866" lon="2.63793">
        <ele>879</ele>
        <time>2013-07-13T08:41:45.000Z</time>
      </trkpt>
      <trkpt lat="45.31851" lon="2.63808">
        <ele>879.40002441406</ele>
        <time>2013-07-13T08:41:49.000Z</time>
      </trkpt>
      <trkpt lat="45.31841" lon="2.63847">
        <ele>880.79998779297</ele>
        <time>2013-07-13T08:41:56.000Z</time>
      </trkpt>
      <trkpt lat="45.31838" lon="2.63899">
        <ele>883.20001220703</ele>
        <time>2013-07-13T08:42:06.000Z</time>
      </trkpt>
      <trkpt lat="45.31818" lon="2.63975">
        <ele>882.59997558594</ele>
        <time>2013-07-13T08:42:18.000Z</time>
      </trkpt>
      <trkpt lat="45.31807" lon="2.64002">
        <ele>881.59997558594</ele>
        <time>2013-07-13T08:42:22.000Z</time>
      </trkpt>
      <trkpt lat="45.31792" lon="2.64022">
        <ele>880.40002441406</ele>
        <time>2013-07-13T08:42:26.000Z</time>
      </trkpt>
      <trkpt lat="45.31784" lon="2.64031">
        <ele>880</ele>
        <time>2013-07-13T08:42:28.000Z</time>
      </trkpt>
      <trkpt lat="45.31747" lon="2.6409">
        <ele>876.79998779297</ele>
        <time>2013-07-13T08:42:38.000Z</time>
      </trkpt>
      <trkpt lat="45.31711" lon="2.6416">
        <ele>875.79998779297</ele>
        <time>2013-07-13T08:42:46.000Z</time>
      </trkpt>
      <trkpt lat="45.317" lon="2.64184">
        <ele>877.59997558594</ele>
        <time>2013-07-13T08:42:49.000Z</time>
      </trkpt>
      <trkpt lat="45.31692" lon="2.64197">
        <ele>879</ele>
        <time>2013-07-13T08:42:51.000Z</time>
      </trkpt>
      <trkpt lat="45.31647" lon="2.6424">
        <ele>884.59997558594</ele>
        <time>2013-07-13T08:43:03.000Z</time>
      </trkpt>
      <trkpt lat="45.31638" lon="2.64271">
        <ele>886.79998779297</ele>
        <time>2013-07-13T08:43:09.000Z</time>
      </trkpt>
      <trkpt lat="45.31631" lon="2.64309">
        <ele>888</ele>
        <time>2013-07-13T08:43:16.000Z</time>
      </trkpt>
      <trkpt lat="45.31621" lon="2.64328">
        <ele>888</ele>
        <time>2013-07-13T08:43:20.000Z</time>
      </trkpt>
      <trkpt lat="45.31575" lon="2.64369">
        <ele>887.40002441406</ele>
        <time>2013-07-13T08:43:34.000Z</time>
      </trkpt>
      <trkpt lat="45.31549" lon="2.64438">
        <ele>889</ele>
        <time>2013-07-13T08:43:50.000Z</time>
      </trkpt>
      <trkpt lat="45.31563" lon="2.64515">
        <ele>889.40002441406</ele>
        <time>2013-07-13T08:44:03.000Z</time>
      </trkpt>
      <trkpt lat="45.31571" lon="2.64591">
        <ele>888.59997558594</ele>
        <time>2013-07-13T08:44:15.000Z</time>
      </trkpt>
      <trkpt lat="45.31592" lon="2.6465">
        <ele>886.79998779297</ele>
        <time>2013-07-13T08:44:25.000Z</time>
      </trkpt>
      <trkpt lat="45.31594" lon="2.64683">
        <ele>886.59997558594</ele>
        <time>2013-07-13T08:44:30.000Z</time>
      </trkpt>
      <trkpt lat="45.31579" lon="2.64764">
        <ele>887.20001220703</ele>
        <time>2013-07-13T08:44:42.000Z</time>
      </trkpt>
      <trkpt lat="45.31562" lon="2.64839">
        <ele>889.40002441406</ele>
        <time>2013-07-13T08:44:53.000Z</time>
      </trkpt>
      <trkpt lat="45.31533" lon="2.64904">
        <ele>893.79998779297</ele>
        <time>2013-07-13T08:45:04.000Z</time>
      </trkpt>
      <trkpt lat="45.31514" lon="2.64976">
        <ele>895.79998779297</ele>
        <time>2013-07-13T08:45:17.000Z</time>
      </trkpt>
      <trkpt lat="45.31504" lon="2.65059">
        <ele>892.40002441406</ele>
        <time>2013-07-13T08:45:32.000Z</time>
      </trkpt>
      <trkpt lat="45.31502" lon="2.65065">
        <ele>892</ele>
        <time>2013-07-13T08:45:33.000Z</time>
      </trkpt>
      <trkpt lat="45.31492" lon="2.65082">
        <ele>891.59997558594</ele>
        <time>2013-07-13T08:45:36.000Z</time>
      </trkpt>
      <trkpt lat="45.31445" lon="2.65121">
        <ele>892.79998779297</ele>
        <time>2013-07-13T08:45:46.000Z</time>
      </trkpt>
      <trkpt lat="45.31429" lon="2.65127">
        <ele>892.79998779297</ele>
        <time>2013-07-13T08:45:49.000Z</time>
      </trkpt>
      <trkpt lat="45.31418" lon="2.65128">
        <ele>893.20001220703</ele>
        <time>2013-07-13T08:45:51.000Z</time>
      </trkpt>
      <trkpt lat="45.31387" lon="2.65117">
        <ele>893.79998779297</ele>
        <time>2013-07-13T08:45:57.000Z</time>
      </trkpt>
      <trkpt lat="45.31337" lon="2.65107">
        <ele>893.79998779297</ele>
        <time>2013-07-13T08:46:07.000Z</time>
      </trkpt>
      <trkpt lat="45.3129" lon="2.65149">
        <ele>891.40002441406</ele>
        <time>2013-07-13T08:46:17.000Z</time>
      </trkpt>
      <trkpt lat="45.31285" lon="2.65151">
        <ele>891.40002441406</ele>
        <time>2013-07-13T08:46:18.000Z</time>
      </trkpt>
      <trkpt lat="45.31279" lon="2.65152">
        <ele>891.40002441406</ele>
        <time>2013-07-13T08:46:19.000Z</time>
      </trkpt>
      <trkpt lat="45.31245" lon="2.65149">
        <ele>891</ele>
        <time>2013-07-13T08:46:25.000Z</time>
      </trkpt>
      <trkpt lat="45.31216" lon="2.65131">
        <ele>889.20001220703</ele>
        <time>2013-07-13T08:46:31.000Z</time>
      </trkpt>
      <trkpt lat="45.31158" lon="2.65108">
        <ele>886.20001220703</ele>
        <time>2013-07-13T08:46:41.000Z</time>
      </trkpt>
      <trkpt lat="45.31135" lon="2.65103">
        <ele>885.40002441406</ele>
        <time>2013-07-13T08:46:45.000Z</time>
      </trkpt>
      <trkpt lat="45.31078" lon="2.65111">
        <ele>884.79998779297</ele>
        <time>2013-07-13T08:46:55.000Z</time>
      </trkpt>
      <trkpt lat="45.31023" lon="2.65128">
        <ele>882.40002441406</ele>
        <time>2013-07-13T08:47:05.000Z</time>
      </trkpt>
      <trkpt lat="45.30973" lon="2.65131">
        <ele>880.40002441406</ele>
        <time>2013-07-13T08:47:13.000Z</time>
      </trkpt>
      <trkpt lat="45.30959" lon="2.65134">
        <ele>880.40002441406</ele>
        <time>2013-07-13T08:47:15.000Z</time>
      </trkpt>
      <trkpt lat="45.30917" lon="2.65174">
        <ele>880.79998779297</ele>
        <time>2013-07-13T08:47:22.000Z</time>
      </trkpt>
      <trkpt lat="45.3089" lon="2.65214">
        <ele>878.20001220703</ele>
        <time>2013-07-13T08:47:27.000Z</time>
      </trkpt>
      <trkpt lat="45.30853" lon="2.65241">
        <ele>875.79998779297</ele>
        <time>2013-07-13T08:47:32.000Z</time>
      </trkpt>
      <trkpt lat="45.3083" lon="2.65255">
        <ele>874.79998779297</ele>
        <time>2013-07-13T08:47:35.000Z</time>
      </trkpt>
      <trkpt lat="45.30794" lon="2.65323">
        <ele>873</ele>
        <time>2013-07-13T08:47:42.000Z</time>
      </trkpt>
      <trkpt lat="45.30789" lon="2.65346">
        <ele>872.40002441406</ele>
        <time>2013-07-13T08:47:44.000Z</time>
      </trkpt>
      <trkpt lat="45.30786" lon="2.65396">
        <ele>871.59997558594</ele>
        <time>2013-07-13T08:47:48.000Z</time>
      </trkpt>
      <trkpt lat="45.30749" lon="2.6544">
        <ele>869</ele>
        <time>2013-07-13T08:47:54.000Z</time>
      </trkpt>
      <trkpt lat="45.30692" lon="2.65459">
        <ele>869.20001220703</ele>
        <time>2013-07-13T08:48:03.000Z</time>
      </trkpt>
      <trkpt lat="45.30638" lon="2.6548">
        <ele>871.20001220703</ele>
        <time>2013-07-13T08:48:13.000Z</time>
      </trkpt>
      <trkpt lat="45.30582" lon="2.655">
        <ele>875</ele>
        <time>2013-07-13T08:48:24.000Z</time>
      </trkpt>
      <trkpt lat="45.30526" lon="2.65526">
        <ele>873.79998779297</ele>
        <time>2013-07-13T08:48:35.000Z</time>
      </trkpt>
      <trkpt lat="45.30496" lon="2.65518">
        <ele>874.20001220703</ele>
        <time>2013-07-13T08:48:40.000Z</time>
      </trkpt>
      <trkpt lat="45.30445" lon="2.65486">
        <ele>873.59997558594</ele>
        <time>2013-07-13T08:48:49.000Z</time>
      </trkpt>
      <trkpt lat="45.3042" lon="2.65465">
        <ele>874</ele>
        <time>2013-07-13T08:48:54.000Z</time>
      </trkpt>
      <trkpt lat="45.30392" lon="2.65458">
        <ele>876.40002441406</ele>
        <time>2013-07-13T08:49:00.000Z</time>
      </trkpt>
      <trkpt lat="45.30371" lon="2.65464">
        <ele>877.40002441406</ele>
        <time>2013-07-13T08:49:04.000Z</time>
      </trkpt>
      <trkpt lat="45.30328" lon="2.6551">
        <ele>877.59997558594</ele>
        <time>2013-07-13T08:49:14.000Z</time>
      </trkpt>
      <trkpt lat="45.30307" lon="2.65533">
        <ele>879.20001220703</ele>
        <time>2013-07-13T08:49:19.000Z</time>
      </trkpt>
      <trkpt lat="45.30255" lon="2.65552">
        <ele>882</ele>
        <time>2013-07-13T08:49:30.000Z</time>
      </trkpt>
      <trkpt lat="45.30203" lon="2.65555">
        <ele>882.40002441406</ele>
        <time>2013-07-13T08:49:43.000Z</time>
      </trkpt>
      <trkpt lat="45.30155" lon="2.65597">
        <ele>883.59997558594</ele>
        <time>2013-07-13T08:49:56.000Z</time>
      </trkpt>
      <trkpt lat="45.30152" lon="2.65601">
        <ele>883.79998779297</ele>
        <time>2013-07-13T08:49:57.000Z</time>
      </trkpt>
      <trkpt lat="45.30113" lon="2.65662">
        <ele>886.20001220703</ele>
        <time>2013-07-13T08:50:10.000Z</time>
      </trkpt>
      <trkpt lat="45.30098" lon="2.65674">
        <ele>886.40002441406</ele>
        <time>2013-07-13T08:50:14.000Z</time>
      </trkpt>
      <trkpt lat="45.30041" lon="2.65681">
        <ele>887.59997558594</ele>
        <time>2013-07-13T08:50:28.000Z</time>
      </trkpt>
      <trkpt lat="45.29984" lon="2.65673">
        <ele>888.40002441406</ele>
        <time>2013-07-13T08:50:41.000Z</time>
      </trkpt>
      <trkpt lat="45.29975" lon="2.65673">
        <ele>888.20001220703</ele>
        <time>2013-07-13T08:50:43.000Z</time>
      </trkpt>
      <trkpt lat="45.2992" lon="2.6569">
        <ele>887</ele>
        <time>2013-07-13T08:50:54.000Z</time>
      </trkpt>
      <trkpt lat="45.29862" lon="2.657">
        <ele>886.20001220703</ele>
        <time>2013-07-13T08:51:05.000Z</time>
      </trkpt>
      <trkpt lat="45.29828" lon="2.6571">
        <ele>886</ele>
        <time>2013-07-13T08:51:11.000Z</time>
      </trkpt>
      <trkpt lat="45.29799" lon="2.65744">
        <ele>886.40002441406</ele>
        <time>2013-07-13T08:51:18.000Z</time>
      </trkpt>
      <trkpt lat="45.2979" lon="2.65752">
        <ele>886.40002441406</ele>
        <time>2013-07-13T08:51:20.000Z</time>
      </trkpt>
      <trkpt lat="45.2974" lon="2.65784">
        <ele>886.40002441406</ele>
        <time>2013-07-13T08:51:31.000Z</time>
      </trkpt>
      <trkpt lat="45.29684" lon="2.65802">
        <ele>887.59997558594</ele>
        <time>2013-07-13T08:51:43.000Z</time>
      </trkpt>
      <trkpt lat="45.29649" lon="2.65827">
        <ele>888.79998779297</ele>
        <time>2013-07-13T08:51:52.000Z</time>
      </trkpt>
      <trkpt lat="45.29608" lon="2.65879">
        <ele>892.20001220703</ele>
        <time>2013-07-13T08:52:08.000Z</time>
      </trkpt>
      <trkpt lat="45.29569" lon="2.65936">
        <ele>895.59997558594</ele>
        <time>2013-07-13T08:52:25.000Z</time>
      </trkpt>
      <trkpt lat="45.29527" lon="2.65989">
        <ele>897.59997558594</ele>
        <time>2013-07-13T08:52:41.000Z</time>
      </trkpt>
      <trkpt lat="45.2948" lon="2.66029">
        <ele>899.59997558594</ele>
        <time>2013-07-13T08:52:57.000Z</time>
      </trkpt>
      <trkpt lat="45.29426" lon="2.66055">
        <ele>900.59997558594</ele>
        <time>2013-07-13T08:53:12.000Z</time>
      </trkpt>
      <trkpt lat="45.29369" lon="2.66063">
        <ele>901.79998779297</ele>
        <time>2013-07-13T08:53:24.000Z</time>
      </trkpt>
      <trkpt lat="45.29364" lon="2.66063">
        <ele>902</ele>
        <time>2013-07-13T08:53:25.000Z</time>
      </trkpt>
      <trkpt lat="45.29308" lon="2.66042">
        <ele>902.59997558594</ele>
        <time>2013-07-13T08:53:38.000Z</time>
      </trkpt>
      <trkpt lat="45.29303" lon="2.66042">
        <ele>902.40002441406</ele>
        <time>2013-07-13T08:53:39.000Z</time>
      </trkpt>
      <trkpt lat="45.29294" lon="2.66042">
        <ele>902</ele>
        <time>2013-07-13T08:53:41.000Z</time>
      </trkpt>
      <trkpt lat="45.29241" lon="2.66067">
        <ele>899.59997558594</ele>
        <time>2013-07-13T08:53:52.000Z</time>
      </trkpt>
      <trkpt lat="45.2919" lon="2.66098">
        <ele>900</ele>
        <time>2013-07-13T08:54:04.000Z</time>
      </trkpt>
      <trkpt lat="45.29138" lon="2.6613">
        <ele>899</ele>
        <time>2013-07-13T08:54:17.000Z</time>
      </trkpt>
      <trkpt lat="45.29088" lon="2.66162">
        <ele>898.79998779297</ele>
        <time>2013-07-13T08:54:29.000Z</time>
      </trkpt>
      <trkpt lat="45.29035" lon="2.66194">
        <ele>895.59997558594</ele>
        <time>2013-07-13T08:54:43.000Z</time>
      </trkpt>
      <trkpt lat="45.29026" lon="2.66197">
        <ele>895.20001220703</ele>
        <time>2013-07-13T08:54:45.000Z</time>
      </trkpt>
      <trkpt lat="45.28999" lon="2.6617">
        <ele>896.40002441406</ele>
        <time>2013-07-13T08:54:52.000Z</time>
      </trkpt>
      <trkpt lat="45.28982" lon="2.66096">
        <ele>890.59997558594</ele>
        <time>2013-07-13T08:55:00.000Z</time>
      </trkpt>
      <trkpt lat="45.28967" lon="2.66014">
        <ele>885.40002441406</ele>
        <time>2013-07-13T08:55:10.000Z</time>
      </trkpt>
      <trkpt lat="45.28965" lon="2.65937">
        <ele>882.40002441406</ele>
        <time>2013-07-13T08:55:18.000Z</time>
      </trkpt>
      <trkpt lat="45.28966" lon="2.6586">
        <ele>881.59997558594</ele>
        <time>2013-07-13T08:55:26.000Z</time>
      </trkpt>
      <trkpt lat="45.2896" lon="2.6581">
        <ele>880</ele>
        <time>2013-07-13T08:55:32.000Z</time>
      </trkpt>
      <trkpt lat="45.28947" lon="2.65771">
        <ele>877</ele>
        <time>2013-07-13T08:55:37.000Z</time>
      </trkpt>
      <trkpt lat="45.28935" lon="2.65742">
        <ele>874.40002441406</ele>
        <time>2013-07-13T08:55:41.000Z</time>
      </trkpt>
      <trkpt lat="45.28899" lon="2.65682">
        <ele>868.20001220703</ele>
        <time>2013-07-13T08:55:50.000Z</time>
      </trkpt>
      <trkpt lat="45.28867" lon="2.65621">
        <ele>863</ele>
        <time>2013-07-13T08:55:59.000Z</time>
      </trkpt>
      <trkpt lat="45.28857" lon="2.656">
        <ele>861.20001220703</ele>
        <time>2013-07-13T08:56:02.000Z</time>
      </trkpt>
      <trkpt lat="45.28806" lon="2.65598">
        <ele>856.20001220703</ele>
        <time>2013-07-13T08:56:11.000Z</time>
      </trkpt>
      <trkpt lat="45.28796" lon="2.65604">
        <ele>855.59997558594</ele>
        <time>2013-07-13T08:56:13.000Z</time>
      </trkpt>
      <trkpt lat="45.28744" lon="2.65632">
        <ele>851.20001220703</ele>
        <time>2013-07-13T08:56:22.000Z</time>
      </trkpt>
      <trkpt lat="45.28693" lon="2.6566">
        <ele>846.20001220703</ele>
        <time>2013-07-13T08:56:31.000Z</time>
      </trkpt>
      <trkpt lat="45.2864" lon="2.65689">
        <ele>843</ele>
        <time>2013-07-13T08:56:41.000Z</time>
      </trkpt>
      <trkpt lat="45.28588" lon="2.65716">
        <ele>840.59997558594</ele>
        <time>2013-07-13T08:56:51.000Z</time>
      </trkpt>
      <trkpt lat="45.28535" lon="2.65746">
        <ele>840</ele>
        <time>2013-07-13T08:57:01.000Z</time>
      </trkpt>
      <trkpt lat="45.28523" lon="2.65755">
        <ele>839.79998779297</ele>
        <time>2013-07-13T08:57:04.000Z</time>
      </trkpt>
      <trkpt lat="45.28501" lon="2.65726">
        <ele>840.20001220703</ele>
        <time>2013-07-13T08:57:13.000Z</time>
      </trkpt>
      <trkpt lat="45.28494" lon="2.65641">
        <ele>840.79998779297</ele>
        <time>2013-07-13T08:57:23.000Z</time>
      </trkpt>
      <trkpt lat="45.28491" lon="2.65564">
        <ele>840.59997558594</ele>
        <time>2013-07-13T08:57:32.000Z</time>
      </trkpt>
      <trkpt lat="45.2849" lon="2.65486">
        <ele>840.79998779297</ele>
        <time>2013-07-13T08:57:41.000Z</time>
      </trkpt>
      <trkpt lat="45.28495" lon="2.65406">
        <ele>840.79998779297</ele>
        <time>2013-07-13T08:57:50.000Z</time>
      </trkpt>
      <trkpt lat="45.28499" lon="2.65329">
        <ele>840</ele>
        <time>2013-07-13T08:57:59.000Z</time>
      </trkpt>
      <trkpt lat="45.28506" lon="2.65245">
        <ele>840</ele>
        <time>2013-07-13T08:58:09.000Z</time>
      </trkpt>
      <trkpt lat="45.28505" lon="2.65237">
        <ele>840.20001220703</ele>
        <time>2013-07-13T08:58:10.000Z</time>
      </trkpt>
      <trkpt lat="45.28503" lon="2.65222">
        <ele>840.20001220703</ele>
        <time>2013-07-13T08:58:12.000Z</time>
      </trkpt>
      <trkpt lat="45.28485" lon="2.65155">
        <ele>842</ele>
        <time>2013-07-13T08:58:21.000Z</time>
      </trkpt>
      <trkpt lat="45.28486" lon="2.65113">
        <ele>842.79998779297</ele>
        <time>2013-07-13T08:58:26.000Z</time>
      </trkpt>
      <trkpt lat="45.28497" lon="2.65038">
        <ele>843.79998779297</ele>
        <time>2013-07-13T08:58:37.000Z</time>
      </trkpt>
      <trkpt lat="45.28512" lon="2.64958">
        <ele>845.79998779297</ele>
        <time>2013-07-13T08:58:49.000Z</time>
      </trkpt>
      <trkpt lat="45.28527" lon="2.64881">
        <ele>847.40002441406</ele>
        <time>2013-07-13T08:59:01.000Z</time>
      </trkpt>
      <trkpt lat="45.28537" lon="2.64802">
        <ele>848.59997558594</ele>
        <time>2013-07-13T08:59:13.000Z</time>
      </trkpt>
      <trkpt lat="45.28542" lon="2.64722">
        <ele>848.79998779297</ele>
        <time>2013-07-13T08:59:25.000Z</time>
      </trkpt>
      <trkpt lat="45.28534" lon="2.64696">
        <ele>849.40002441406</ele>
        <time>2013-07-13T08:59:29.000Z</time>
      </trkpt>
      <trkpt lat="45.28532" lon="2.64689">
        <ele>849.79998779297</ele>
        <time>2013-07-13T08:59:30.000Z</time>
      </trkpt>
      <trkpt lat="45.28522" lon="2.64609">
        <ele>849.79998779297</ele>
        <time>2013-07-13T08:59:41.000Z</time>
      </trkpt>
      <trkpt lat="45.28525" lon="2.64532">
        <ele>849.59997558594</ele>
        <time>2013-07-13T08:59:51.000Z</time>
      </trkpt>
      <trkpt lat="45.2853" lon="2.64454">
        <ele>850.20001220703</ele>
        <time>2013-07-13T09:00:01.000Z</time>
      </trkpt>
      <trkpt lat="45.28527" lon="2.6437">
        <ele>851.59997558594</ele>
        <time>2013-07-13T09:00:11.000Z</time>
      </trkpt>
      <trkpt lat="45.28541" lon="2.64296">
        <ele>851.79998779297</ele>
        <time>2013-07-13T09:00:21.000Z</time>
      </trkpt>
      <trkpt lat="45.28553" lon="2.64219">
        <ele>853.20001220703</ele>
        <time>2013-07-13T09:00:33.000Z</time>
      </trkpt>
      <trkpt lat="45.28556" lon="2.6414">
        <ele>853.79998779297</ele>
        <time>2013-07-13T09:00:45.000Z</time>
      </trkpt>
      <trkpt lat="45.28549" lon="2.6406">
        <ele>854.59997558594</ele>
        <time>2013-07-13T09:00:56.000Z</time>
      </trkpt>
      <trkpt lat="45.28541" lon="2.63987">
        <ele>857</ele>
        <time>2013-07-13T09:01:05.000Z</time>
      </trkpt>
      <trkpt lat="45.28542" lon="2.63959">
        <ele>858.20001220703</ele>
        <time>2013-07-13T09:01:09.000Z</time>
      </trkpt>
      <trkpt lat="45.28563" lon="2.63883">
        <ele>859.79998779297</ele>
        <time>2013-07-13T09:01:21.000Z</time>
      </trkpt>
      <trkpt lat="45.28588" lon="2.63812">
        <ele>859.20001220703</ele>
        <time>2013-07-13T09:01:33.000Z</time>
      </trkpt>
      <trkpt lat="45.28616" lon="2.63744">
        <ele>860.40002441406</ele>
        <time>2013-07-13T09:01:46.000Z</time>
      </trkpt>
      <trkpt lat="45.28615" lon="2.63694">
        <ele>861.79998779297</ele>
        <time>2013-07-13T09:01:56.000Z</time>
      </trkpt>
      <trkpt lat="45.28606" lon="2.63681">
        <ele>862.59997558594</ele>
        <time>2013-07-13T09:01:59.000Z</time>
      </trkpt>
      <trkpt lat="45.28582" lon="2.63612">
        <ele>865.79998779297</ele>
        <time>2013-07-13T09:02:14.000Z</time>
      </trkpt>
      <trkpt lat="45.28558" lon="2.63541">
        <ele>869</ele>
        <time>2013-07-13T09:02:30.000Z</time>
      </trkpt>
      <trkpt lat="45.28534" lon="2.6347">
        <ele>872.20001220703</ele>
        <time>2013-07-13T09:02:46.000Z</time>
      </trkpt>
      <trkpt lat="45.2851" lon="2.63402">
        <ele>874</ele>
        <time>2013-07-13T09:03:02.000Z</time>
      </trkpt>
      <trkpt lat="45.28485" lon="2.63329">
        <ele>877.20001220703</ele>
        <time>2013-07-13T09:03:19.000Z</time>
      </trkpt>
      <trkpt lat="45.2846" lon="2.63259">
        <ele>877</ele>
        <time>2013-07-13T09:03:35.000Z</time>
      </trkpt>
      <trkpt lat="45.28434" lon="2.63213">
        <ele>875.79998779297</ele>
        <time>2013-07-13T09:03:45.000Z</time>
      </trkpt>
      <trkpt lat="45.28401" lon="2.63178">
        <ele>874.79998779297</ele>
        <time>2013-07-13T09:03:54.000Z</time>
      </trkpt>
      <trkpt lat="45.28391" lon="2.63172">
        <ele>874.59997558594</ele>
        <time>2013-07-13T09:03:56.000Z</time>
      </trkpt>
      <trkpt lat="45.28336" lon="2.63152">
        <ele>873.40002441406</ele>
        <time>2013-07-13T09:04:06.000Z</time>
      </trkpt>
      <trkpt lat="45.2828" lon="2.63131">
        <ele>874</ele>
        <time>2013-07-13T09:04:18.000Z</time>
      </trkpt>
      <trkpt lat="45.28223" lon="2.63113">
        <ele>874.40002441406</ele>
        <time>2013-07-13T09:04:31.000Z</time>
      </trkpt>
      <trkpt lat="45.28166" lon="2.63109">
        <ele>874.79998779297</ele>
        <time>2013-07-13T09:04:44.000Z</time>
      </trkpt>
      <trkpt lat="45.2811" lon="2.63093">
        <ele>875.20001220703</ele>
        <time>2013-07-13T09:04:57.000Z</time>
      </trkpt>
      <trkpt lat="45.28102" lon="2.63087">
        <ele>875.40002441406</ele>
        <time>2013-07-13T09:04:59.000Z</time>
      </trkpt>
      <trkpt lat="45.28078" lon="2.63058">
        <ele>875.79998779297</ele>
        <time>2013-07-13T09:05:06.000Z</time>
      </trkpt>
      <trkpt lat="45.2807" lon="2.63037">
        <ele>876.20001220703</ele>
        <time>2013-07-13T09:05:10.000Z</time>
      </trkpt>
      <trkpt lat="45.28058" lon="2.62959">
        <ele>879.79998779297</ele>
        <time>2013-07-13T09:05:24.000Z</time>
      </trkpt>
      <trkpt lat="45.28049" lon="2.62883">
        <ele>886.20001220703</ele>
        <time>2013-07-13T09:05:39.000Z</time>
      </trkpt>
      <trkpt lat="45.28041" lon="2.62805">
        <ele>895</ele>
        <time>2013-07-13T09:05:55.000Z</time>
      </trkpt>
      <trkpt lat="45.28053" lon="2.62731">
        <ele>897.79998779297</ele>
        <time>2013-07-13T09:06:10.000Z</time>
      </trkpt>
      <trkpt lat="45.28058" lon="2.62654">
        <ele>901</ele>
        <time>2013-07-13T09:06:25.000Z</time>
      </trkpt>
      <trkpt lat="45.28046" lon="2.62577">
        <ele>904.40002441406</ele>
        <time>2013-07-13T09:06:39.000Z</time>
      </trkpt>
      <trkpt lat="45.2803" lon="2.62503">
        <ele>903.40002441406</ele>
        <time>2013-07-13T09:06:52.000Z</time>
      </trkpt>
      <trkpt lat="45.28008" lon="2.62427">
        <ele>898</ele>
        <time>2013-07-13T09:07:06.000Z</time>
      </trkpt>
      <trkpt lat="45.27975" lon="2.62364">
        <ele>899.20001220703</ele>
        <time>2013-07-13T09:07:18.000Z</time>
      </trkpt>
      <trkpt lat="45.27942" lon="2.62304">
        <ele>898.59997558594</ele>
        <time>2013-07-13T09:07:31.000Z</time>
      </trkpt>
      <trkpt lat="45.27894" lon="2.62262">
        <ele>894</ele>
        <time>2013-07-13T09:07:47.000Z</time>
      </trkpt>
      <trkpt lat="45.27835" lon="2.62266">
        <ele>898.20001220703</ele>
        <time>2013-07-13T09:07:59.000Z</time>
      </trkpt>
      <trkpt lat="45.2783" lon="2.62266">
        <ele>899</ele>
        <time>2013-07-13T09:08:00.000Z</time>
      </trkpt>
      <trkpt lat="45.27786" lon="2.62263">
        <ele>902.59997558594</ele>
        <time>2013-07-13T09:08:09.000Z</time>
      </trkpt>
      <trkpt lat="45.27733" lon="2.62241">
        <ele>902</ele>
        <time>2013-07-13T09:08:23.000Z</time>
      </trkpt>
      <trkpt lat="45.27681" lon="2.62263">
        <ele>907.79998779297</ele>
        <time>2013-07-13T09:08:38.000Z</time>
      </trkpt>
      <trkpt lat="45.27627" lon="2.62259">
        <ele>907.40002441406</ele>
        <time>2013-07-13T09:08:53.000Z</time>
      </trkpt>
      <trkpt lat="45.27584" lon="2.62217">
        <ele>907.59997558594</ele>
        <time>2013-07-13T09:09:08.000Z</time>
      </trkpt>
      <trkpt lat="45.27553" lon="2.62153">
        <ele>911.59997558594</ele>
        <time>2013-07-13T09:09:24.000Z</time>
      </trkpt>
      <trkpt lat="45.27522" lon="2.62088">
        <ele>915</ele>
        <time>2013-07-13T09:09:43.000Z</time>
      </trkpt>
      <trkpt lat="45.27492" lon="2.6202">
        <ele>917</ele>
        <time>2013-07-13T09:10:01.000Z</time>
      </trkpt>
      <trkpt lat="45.2748" lon="2.61942">
        <ele>918.40002441406</ele>
        <time>2013-07-13T09:10:18.000Z</time>
      </trkpt>
      <trkpt lat="45.2747" lon="2.61864">
        <ele>917.79998779297</ele>
        <time>2013-07-13T09:10:33.000Z</time>
      </trkpt>
      <trkpt lat="45.27462" lon="2.61788">
        <ele>918.40002441406</ele>
        <time>2013-07-13T09:10:45.000Z</time>
      </trkpt>
      <trkpt lat="45.27452" lon="2.6171">
        <ele>920</ele>
        <time>2013-07-13T09:10:56.000Z</time>
      </trkpt>
      <trkpt lat="45.27442" lon="2.61631">
        <ele>921.20001220703</ele>
        <time>2013-07-13T09:11:07.000Z</time>
      </trkpt>
      <trkpt lat="45.27431" lon="2.61556">
        <ele>921.79998779297</ele>
        <time>2013-07-13T09:11:17.000Z</time>
      </trkpt>
      <trkpt lat="45.27426" lon="2.61524">
        <ele>921.79998779297</ele>
        <time>2013-07-13T09:11:21.000Z</time>
      </trkpt>
      <trkpt lat="45.27415" lon="2.61445">
        <ele>921.59997558594</ele>
        <time>2013-07-13T09:11:32.000Z</time>
      </trkpt>
      <trkpt lat="45.27403" lon="2.61367">
        <ele>923</ele>
        <time>2013-07-13T09:11:42.000Z</time>
      </trkpt>
      <trkpt lat="45.27387" lon="2.61292">
        <ele>923</ele>
        <time>2013-07-13T09:11:52.000Z</time>
      </trkpt>
      <trkpt lat="45.27356" lon="2.61224">
        <ele>921.79998779297</ele>
        <time>2013-07-13T09:12:01.000Z</time>
      </trkpt>
      <trkpt lat="45.27325" lon="2.61159">
        <ele>919.40002441406</ele>
        <time>2013-07-13T09:12:08.000Z</time>
      </trkpt>
      <trkpt lat="45.27318" lon="2.61137">
        <ele>919</ele>
        <time>2013-07-13T09:12:10.000Z</time>
      </trkpt>
      <trkpt lat="45.27314" lon="2.61073">
        <ele>918</ele>
        <time>2013-07-13T09:12:15.000Z</time>
      </trkpt>
      <trkpt lat="45.27315" lon="2.60993">
        <ele>915.59997558594</ele>
        <time>2013-07-13T09:12:21.000Z</time>
      </trkpt>
      <trkpt lat="45.27316" lon="2.6091">
        <ele>914.59997558594</ele>
        <time>2013-07-13T09:12:27.000Z</time>
      </trkpt>
      <trkpt lat="45.2732" lon="2.60824">
        <ele>910.59997558594</ele>
        <time>2013-07-13T09:12:33.000Z</time>
      </trkpt>
      <trkpt lat="45.27336" lon="2.60745">
        <ele>909</ele>
        <time>2013-07-13T09:12:39.000Z</time>
      </trkpt>
      <trkpt lat="45.27339" lon="2.60657">
        <ele>909.40002441406</ele>
        <time>2013-07-13T09:12:46.000Z</time>
      </trkpt>
      <trkpt lat="45.2733" lon="2.60612">
        <ele>908.79998779297</ele>
        <time>2013-07-13T09:12:50.000Z</time>
      </trkpt>
      <trkpt lat="45.273" lon="2.60544">
        <ele>906.79998779297</ele>
        <time>2013-07-13T09:12:57.000Z</time>
      </trkpt>
      <trkpt lat="45.27297" lon="2.60533">
        <ele>906.40002441406</ele>
        <time>2013-07-13T09:12:58.000Z</time>
      </trkpt>
      <trkpt lat="45.27293" lon="2.6049">
        <ele>904.79998779297</ele>
        <time>2013-07-13T09:13:02.000Z</time>
      </trkpt>
      <trkpt lat="45.27287" lon="2.60415">
        <ele>901.59997558594</ele>
        <time>2013-07-13T09:13:10.000Z</time>
      </trkpt>
      <trkpt lat="45.27237" lon="2.60385">
        <ele>900.79998779297</ele>
        <time>2013-07-13T09:13:19.000Z</time>
      </trkpt>
      <trkpt lat="45.27185" lon="2.60414">
        <ele>900.59997558594</ele>
        <time>2013-07-13T09:13:28.000Z</time>
      </trkpt>
      <trkpt lat="45.27141" lon="2.60468">
        <ele>901.40002441406</ele>
        <time>2013-07-13T09:13:38.000Z</time>
      </trkpt>
      <trkpt lat="45.27095" lon="2.60522">
        <ele>902.79998779297</ele>
        <time>2013-07-13T09:13:48.000Z</time>
      </trkpt>
      <trkpt lat="45.2709" lon="2.60527">
        <ele>903</ele>
        <time>2013-07-13T09:13:49.000Z</time>
      </trkpt>
      <trkpt lat="45.2706" lon="2.60543">
        <ele>904.20001220703</ele>
        <time>2013-07-13T09:13:54.000Z</time>
      </trkpt>
      <trkpt lat="45.27054" lon="2.60544">
        <ele>904.40002441406</ele>
        <time>2013-07-13T09:13:55.000Z</time>
      </trkpt>
      <trkpt lat="45.2703" lon="2.6054">
        <ele>904.40002441406</ele>
        <time>2013-07-13T09:13:59.000Z</time>
      </trkpt>
      <trkpt lat="45.26996" lon="2.60528">
        <ele>903.20001220703</ele>
        <time>2013-07-13T09:14:05.000Z</time>
      </trkpt>
      <trkpt lat="45.2695" lon="2.60534">
        <ele>904</ele>
        <time>2013-07-13T09:14:13.000Z</time>
      </trkpt>
      <trkpt lat="45.26922" lon="2.60508">
        <ele>902.20001220703</ele>
        <time>2013-07-13T09:14:19.000Z</time>
      </trkpt>
      <trkpt lat="45.26897" lon="2.60452">
        <ele>900.59997558594</ele>
        <time>2013-07-13T09:14:27.000Z</time>
      </trkpt>
      <trkpt lat="45.26856" lon="2.60389">
        <ele>899</ele>
        <time>2013-07-13T09:14:36.000Z</time>
      </trkpt>
      <trkpt lat="45.26816" lon="2.6033">
        <ele>896.79998779297</ele>
        <time>2013-07-13T09:14:44.000Z</time>
      </trkpt>
      <trkpt lat="45.26776" lon="2.6027">
        <ele>893.59997558594</ele>
        <time>2013-07-13T09:14:52.000Z</time>
      </trkpt>
      <trkpt lat="45.26735" lon="2.60251">
        <ele>892.59997558594</ele>
        <time>2013-07-13T09:14:58.000Z</time>
      </trkpt>
      <trkpt lat="45.26705" lon="2.60253">
        <ele>892</ele>
        <time>2013-07-13T09:15:02.000Z</time>
      </trkpt>
      <trkpt lat="45.26677" lon="2.60285">
        <ele>892</ele>
        <time>2013-07-13T09:15:07.000Z</time>
      </trkpt>
      <trkpt lat="45.2666" lon="2.60311">
        <ele>892.59997558594</ele>
        <time>2013-07-13T09:15:11.000Z</time>
      </trkpt>
      <trkpt lat="45.26636" lon="2.60297">
        <ele>893.40002441406</ele>
        <time>2013-07-13T09:15:16.000Z</time>
      </trkpt>
      <trkpt lat="45.2663" lon="2.60283">
        <ele>893.79998779297</ele>
        <time>2013-07-13T09:15:18.000Z</time>
      </trkpt>
      <trkpt lat="45.26631" lon="2.60255">
        <ele>893.79998779297</ele>
        <time>2013-07-13T09:15:22.000Z</time>
      </trkpt>
      <trkpt lat="45.26646" lon="2.60176">
        <ele>894.59997558594</ele>
        <time>2013-07-13T09:15:35.000Z</time>
      </trkpt>
      <trkpt lat="45.26646" lon="2.60098">
        <ele>895.40002441406</ele>
        <time>2013-07-13T09:15:48.000Z</time>
      </trkpt>
      <trkpt lat="45.26653" lon="2.6002">
        <ele>894.40002441406</ele>
        <time>2013-07-13T09:16:02.000Z</time>
      </trkpt>
      <trkpt lat="45.26666" lon="2.59943">
        <ele>897</ele>
        <time>2013-07-13T09:16:16.000Z</time>
      </trkpt>
      <trkpt lat="45.2667" lon="2.59926">
        <ele>897.79998779297</ele>
        <time>2013-07-13T09:16:19.000Z</time>
      </trkpt>
      <trkpt lat="45.26698" lon="2.59858">
        <ele>898</ele>
        <time>2013-07-13T09:16:33.000Z</time>
      </trkpt>
      <trkpt lat="45.26712" lon="2.5978">
        <ele>899.59997558594</ele>
        <time>2013-07-13T09:16:48.000Z</time>
      </trkpt>
      <trkpt lat="45.2672" lon="2.59703">
        <ele>902.40002441406</ele>
        <time>2013-07-13T09:17:03.000Z</time>
      </trkpt>
      <trkpt lat="45.26718" lon="2.59627">
        <ele>905.79998779297</ele>
        <time>2013-07-13T09:17:17.000Z</time>
      </trkpt>
      <trkpt lat="45.26695" lon="2.59555">
        <ele>909</ele>
        <time>2013-07-13T09:17:31.000Z</time>
      </trkpt>
      <trkpt lat="45.26669" lon="2.59482">
        <ele>910.59997558594</ele>
        <time>2013-07-13T09:17:46.000Z</time>
      </trkpt>
      <trkpt lat="45.26657" lon="2.59406">
        <ele>912</ele>
        <time>2013-07-13T09:18:00.000Z</time>
      </trkpt>
      <trkpt lat="45.2667" lon="2.59332">
        <ele>913.79998779297</ele>
        <time>2013-07-13T09:18:14.000Z</time>
      </trkpt>
      <trkpt lat="45.26671" lon="2.59252">
        <ele>916.40002441406</ele>
        <time>2013-07-13T09:18:29.000Z</time>
      </trkpt>
      <trkpt lat="45.26659" lon="2.59175">
        <ele>918.79998779297</ele>
        <time>2013-07-13T09:18:44.000Z</time>
      </trkpt>
      <trkpt lat="45.26646" lon="2.59098">
        <ele>921.20001220703</ele>
        <time>2013-07-13T09:18:59.000Z</time>
      </trkpt>
      <trkpt lat="45.26633" lon="2.59023">
        <ele>925.59997558594</ele>
        <time>2013-07-13T09:19:17.000Z</time>
      </trkpt>
      <trkpt lat="45.26621" lon="2.58946">
        <ele>929.40002441406</ele>
        <time>2013-07-13T09:19:37.000Z</time>
      </trkpt>
      <trkpt lat="45.2662" lon="2.58867">
        <ele>929.20001220703</ele>
        <time>2013-07-13T09:19:57.000Z</time>
      </trkpt>
      <trkpt lat="45.2662" lon="2.58789">
        <ele>929.20001220703</ele>
        <time>2013-07-13T09:20:17.000Z</time>
      </trkpt>
      <trkpt lat="45.26625" lon="2.58709">
        <ele>932.40002441406</ele>
        <time>2013-07-13T09:20:38.000Z</time>
      </trkpt>
      <trkpt lat="45.26641" lon="2.58634">
        <ele>935.20001220703</ele>
        <time>2013-07-13T09:20:58.000Z</time>
      </trkpt>
      <trkpt lat="45.26658" lon="2.58559">
        <ele>936.59997558594</ele>
        <time>2013-07-13T09:21:18.000Z</time>
      </trkpt>
      <trkpt lat="45.26661" lon="2.5848">
        <ele>940.59997558594</ele>
        <time>2013-07-13T09:21:38.000Z</time>
      </trkpt>
      <trkpt lat="45.26648" lon="2.58403">
        <ele>943.59997558594</ele>
        <time>2013-07-13T09:21:58.000Z</time>
      </trkpt>
      <trkpt lat="45.26652" lon="2.58324">
        <ele>944.59997558594</ele>
        <time>2013-07-13T09:22:18.000Z</time>
      </trkpt>
      <trkpt lat="45.26677" lon="2.58256">
        <ele>950</ele>
        <time>2013-07-13T09:22:37.000Z</time>
      </trkpt>
      <trkpt lat="45.26712" lon="2.58195">
        <ele>955.79998779297</ele>
        <time>2013-07-13T09:22:56.000Z</time>
      </trkpt>
      <trkpt lat="45.26746" lon="2.58133">
        <ele>958.40002441406</ele>
        <time>2013-07-13T09:23:15.000Z</time>
      </trkpt>
      <trkpt lat="45.26771" lon="2.58063">
        <ele>965.20001220703</ele>
        <time>2013-07-13T09:23:34.000Z</time>
      </trkpt>
      <trkpt lat="45.26791" lon="2.57987">
        <ele>967.79998779297</ele>
        <time>2013-07-13T09:23:53.000Z</time>
      </trkpt>
      <trkpt lat="45.26809" lon="2.57912">
        <ele>962.79998779297</ele>
        <time>2013-07-13T09:24:12.000Z</time>
      </trkpt>
      <trkpt lat="45.26812" lon="2.57833">
        <ele>965.59997558594</ele>
        <time>2013-07-13T09:24:31.000Z</time>
      </trkpt>
      <trkpt lat="45.26799" lon="2.57758">
        <ele>971</ele>
        <time>2013-07-13T09:24:50.000Z</time>
      </trkpt>
      <trkpt lat="45.26783" lon="2.57682">
        <ele>973.40002441406</ele>
        <time>2013-07-13T09:25:09.000Z</time>
      </trkpt>
      <trkpt lat="45.26768" lon="2.57608">
        <ele>974.59997558594</ele>
        <time>2013-07-13T09:25:28.000Z</time>
      </trkpt>
      <trkpt lat="45.26761" lon="2.57528">
        <ele>972.40002441406</ele>
        <time>2013-07-13T09:25:47.000Z</time>
      </trkpt>
      <trkpt lat="45.26749" lon="2.57452">
        <ele>972.59997558594</ele>
        <time>2013-07-13T09:26:06.000Z</time>
      </trkpt>
      <trkpt lat="45.26715" lon="2.57389">
        <ele>973.79998779297</ele>
        <time>2013-07-13T09:26:26.000Z</time>
      </trkpt>
      <trkpt lat="45.26669" lon="2.57348">
        <ele>976</ele>
        <time>2013-07-13T09:26:48.000Z</time>
      </trkpt>
      <trkpt lat="45.26621" lon="2.57309">
        <ele>979</ele>
        <time>2013-07-13T09:27:09.000Z</time>
      </trkpt>
      <trkpt lat="45.26572" lon="2.57275">
        <ele>981.59997558594</ele>
        <time>2013-07-13T09:27:29.000Z</time>
      </trkpt>
      <trkpt lat="45.26515" lon="2.5727">
        <ele>984.59997558594</ele>
        <time>2013-07-13T09:27:50.000Z</time>
      </trkpt>
      <trkpt lat="45.2646" lon="2.57263">
        <ele>987.59997558594</ele>
        <time>2013-07-13T09:28:07.000Z</time>
      </trkpt>
      <trkpt lat="45.26405" lon="2.57245">
        <ele>989.79998779297</ele>
        <time>2013-07-13T09:28:26.000Z</time>
      </trkpt>
      <trkpt lat="45.26356" lon="2.57208">
        <ele>991.40002441406</ele>
        <time>2013-07-13T09:28:45.000Z</time>
      </trkpt>
      <trkpt lat="45.26302" lon="2.57186">
        <ele>996.40002441406</ele>
        <time>2013-07-13T09:29:04.000Z</time>
      </trkpt>
      <trkpt lat="45.26281" lon="2.5718">
        <ele>998.20001220703</ele>
        <time>2013-07-13T09:29:14.000Z</time>
      </trkpt>
      <trkpt lat="45.26276" lon="2.57173">
        <ele>997.79998779297</ele>
        <time>2013-07-13T09:37:26.000Z</time>
      </trkpt>
      <trkpt lat="45.26224" lon="2.57148">
        <ele>1000.4000244141</ele>
        <time>2013-07-13T09:37:49.000Z</time>
      </trkpt>
      <trkpt lat="45.26188" lon="2.57091">
        <ele>999</ele>
        <time>2013-07-13T09:38:11.000Z</time>
      </trkpt>
      <trkpt lat="45.26191" lon="2.57014">
        <ele>1006.5999755859</ele>
        <time>2013-07-13T09:38:34.000Z</time>
      </trkpt>
      <trkpt lat="45.26232" lon="2.56961">
        <ele>1010.5999755859</ele>
        <time>2013-07-13T09:38:57.000Z</time>
      </trkpt>
      <trkpt lat="45.26277" lon="2.56919">
        <ele>1015</ele>
        <time>2013-07-13T09:39:19.000Z</time>
      </trkpt>
      <trkpt lat="45.26328" lon="2.56888">
        <ele>1018</ele>
        <time>2013-07-13T09:39:41.000Z</time>
      </trkpt>
      <trkpt lat="45.26385" lon="2.56879">
        <ele>1014.200012207</ele>
        <time>2013-07-13T09:40:02.000Z</time>
      </trkpt>
      <trkpt lat="45.26437" lon="2.56848">
        <ele>1014.799987793</ele>
        <time>2013-07-13T09:40:23.000Z</time>
      </trkpt>
      <trkpt lat="45.26483" lon="2.56808">
        <ele>1015.4000244141</ele>
        <time>2013-07-13T09:40:42.000Z</time>
      </trkpt>
      <trkpt lat="45.26512" lon="2.56745">
        <ele>1020.5999755859</ele>
        <time>2013-07-13T09:41:01.000Z</time>
      </trkpt>
      <trkpt lat="45.26506" lon="2.56669">
        <ele>1025.8000488281</ele>
        <time>2013-07-13T09:41:21.000Z</time>
      </trkpt>
      <trkpt lat="45.26471" lon="2.56609">
        <ele>1030.4000244141</ele>
        <time>2013-07-13T09:41:41.000Z</time>
      </trkpt>
      <trkpt lat="45.26432" lon="2.56556">
        <ele>1034.5999755859</ele>
        <time>2013-07-13T09:42:01.000Z</time>
      </trkpt>
      <trkpt lat="45.26417" lon="2.56481">
        <ele>1036.8000488281</ele>
        <time>2013-07-13T09:42:22.000Z</time>
      </trkpt>
      <trkpt lat="45.26414" lon="2.56402">
        <ele>1040.4000244141</ele>
        <time>2013-07-13T09:42:42.000Z</time>
      </trkpt>
      <trkpt lat="45.26422" lon="2.56324">
        <ele>1040.5999755859</ele>
        <time>2013-07-13T09:43:02.000Z</time>
      </trkpt>
      <trkpt lat="45.26425" lon="2.56248">
        <ele>1042.1999511719</ele>
        <time>2013-07-13T09:43:22.000Z</time>
      </trkpt>
      <trkpt lat="45.26389" lon="2.56191">
        <ele>1043.1999511719</ele>
        <time>2013-07-13T09:43:38.000Z</time>
      </trkpt>
      <trkpt lat="45.26372" lon="2.56172">
        <ele>1041.8000488281</ele>
        <time>2013-07-13T09:43:42.000Z</time>
      </trkpt>
      <trkpt lat="45.26317" lon="2.56165">
        <ele>1038.1999511719</ele>
        <time>2013-07-13T09:43:50.000Z</time>
      </trkpt>
      <trkpt lat="45.26309" lon="2.56168">
        <ele>1038.1999511719</ele>
        <time>2013-07-13T09:43:51.000Z</time>
      </trkpt>
      <trkpt lat="45.26285" lon="2.56174">
        <ele>1037.5999755859</ele>
        <time>2013-07-13T09:43:54.000Z</time>
      </trkpt>
      <trkpt lat="45.2625" lon="2.56157">
        <ele>1035.4000244141</ele>
        <time>2013-07-13T09:43:58.000Z</time>
      </trkpt>
      <trkpt lat="45.2621" lon="2.5612">
        <ele>1034.1999511719</ele>
        <time>2013-07-13T09:44:03.000Z</time>
      </trkpt>
      <trkpt lat="45.26206" lon="2.56043">
        <ele>1031</ele>
        <time>2013-07-13T09:44:09.000Z</time>
      </trkpt>
      <trkpt lat="45.26209" lon="2.56015">
        <ele>1029.5999755859</ele>
        <time>2013-07-13T09:44:11.000Z</time>
      </trkpt>
      <trkpt lat="45.26205" lon="2.55955">
        <ele>1027.5999755859</ele>
        <time>2013-07-13T09:44:15.000Z</time>
      </trkpt>
      <trkpt lat="45.26188" lon="2.55881">
        <ele>1025.8000488281</ele>
        <time>2013-07-13T09:44:20.000Z</time>
      </trkpt>
      <trkpt lat="45.26161" lon="2.55811">
        <ele>1023.5999755859</ele>
        <time>2013-07-13T09:44:25.000Z</time>
      </trkpt>
      <trkpt lat="45.26129" lon="2.55741">
        <ele>1018.799987793</ele>
        <time>2013-07-13T09:44:30.000Z</time>
      </trkpt>
      <trkpt lat="45.26095" lon="2.55671">
        <ele>1015.200012207</ele>
        <time>2013-07-13T09:44:35.000Z</time>
      </trkpt>
      <trkpt lat="45.26058" lon="2.55598">
        <ele>1012</ele>
        <time>2013-07-13T09:44:40.000Z</time>
      </trkpt>
      <trkpt lat="45.26024" lon="2.55528">
        <ele>1012.799987793</ele>
        <time>2013-07-13T09:44:45.000Z</time>
      </trkpt>
      <trkpt lat="45.26017" lon="2.55473">
        <ele>1013.4000244141</ele>
        <time>2013-07-13T09:44:49.000Z</time>
      </trkpt>
      <trkpt lat="45.26011" lon="2.5539">
        <ele>1013.799987793</ele>
        <time>2013-07-13T09:44:56.000Z</time>
      </trkpt>
      <trkpt lat="45.25999" lon="2.55309">
        <ele>1015.200012207</ele>
        <time>2013-07-13T09:45:05.000Z</time>
      </trkpt>
      <trkpt lat="45.25981" lon="2.55233">
        <ele>1015.5999755859</ele>
        <time>2013-07-13T09:45:15.000Z</time>
      </trkpt>
      <trkpt lat="45.25953" lon="2.55161">
        <ele>1014.200012207</ele>
        <time>2013-07-13T09:45:25.000Z</time>
      </trkpt>
      <trkpt lat="45.25905" lon="2.55108">
        <ele>1012.200012207</ele>
        <time>2013-07-13T09:45:34.000Z</time>
      </trkpt>
      <trkpt lat="45.25867" lon="2.55052">
        <ele>1011.799987793</ele>
        <time>2013-07-13T09:45:41.000Z</time>
      </trkpt>
      <trkpt lat="45.25847" lon="2.55003">
        <ele>1011.5999755859</ele>
        <time>2013-07-13T09:45:46.000Z</time>
      </trkpt>
      <trkpt lat="45.25837" lon="2.54921">
        <ele>1010</ele>
        <time>2013-07-13T09:45:53.000Z</time>
      </trkpt>
      <trkpt lat="45.25834" lon="2.5484">
        <ele>1009</ele>
        <time>2013-07-13T09:46:00.000Z</time>
      </trkpt>
      <trkpt lat="45.2583" lon="2.54763">
        <ele>1008.4000244141</ele>
        <time>2013-07-13T09:46:07.000Z</time>
      </trkpt>
      <trkpt lat="45.25825" lon="2.54684">
        <ele>1007</ele>
        <time>2013-07-13T09:46:14.000Z</time>
      </trkpt>
      <trkpt lat="45.25821" lon="2.54601">
        <ele>1004</ele>
        <time>2013-07-13T09:46:21.000Z</time>
      </trkpt>
      <trkpt lat="45.25815" lon="2.5455">
        <ele>1002.4000244141</ele>
        <time>2013-07-13T09:46:25.000Z</time>
      </trkpt>
      <trkpt lat="45.25798" lon="2.54475">
        <ele>1000.799987793</ele>
        <time>2013-07-13T09:46:31.000Z</time>
      </trkpt>
      <trkpt lat="45.25779" lon="2.54399">
        <ele>1000.5999755859</ele>
        <time>2013-07-13T09:46:37.000Z</time>
      </trkpt>
      <trkpt lat="45.25765" lon="2.54318">
        <ele>999</ele>
        <time>2013-07-13T09:46:43.000Z</time>
      </trkpt>
      <trkpt lat="45.25744" lon="2.5424">
        <ele>996.59997558594</ele>
        <time>2013-07-13T09:46:49.000Z</time>
      </trkpt>
      <trkpt lat="45.25708" lon="2.54177">
        <ele>994</ele>
        <time>2013-07-13T09:46:55.000Z</time>
      </trkpt>
      <trkpt lat="45.25656" lon="2.54129">
        <ele>990.79998779297</ele>
        <time>2013-07-13T09:47:01.000Z</time>
      </trkpt>
      <trkpt lat="45.25606" lon="2.54092">
        <ele>986.40002441406</ele>
        <time>2013-07-13T09:47:06.000Z</time>
      </trkpt>
      <trkpt lat="45.25549" lon="2.5405">
        <ele>983.20001220703</ele>
        <time>2013-07-13T09:47:12.000Z</time>
      </trkpt>
      <trkpt lat="45.25495" lon="2.54017">
        <ele>980.20001220703</ele>
        <time>2013-07-13T09:47:18.000Z</time>
      </trkpt>
      <trkpt lat="45.25437" lon="2.53994">
        <ele>978.79998779297</ele>
        <time>2013-07-13T09:47:24.000Z</time>
      </trkpt>
      <trkpt lat="45.25381" lon="2.53975">
        <ele>976.20001220703</ele>
        <time>2013-07-13T09:47:31.000Z</time>
      </trkpt>
      <trkpt lat="45.25333" lon="2.53961">
        <ele>974</ele>
        <time>2013-07-13T09:47:38.000Z</time>
      </trkpt>
      <trkpt lat="45.25319" lon="2.53963">
        <ele>973.40002441406</ele>
        <time>2013-07-13T09:47:40.000Z</time>
      </trkpt>
      <trkpt lat="45.25275" lon="2.53986">
        <ele>972.40002441406</ele>
        <time>2013-07-13T09:47:47.000Z</time>
      </trkpt>
      <trkpt lat="45.2522" lon="2.53956">
        <ele>971.59997558594</ele>
        <time>2013-07-13T09:47:56.000Z</time>
      </trkpt>
      <trkpt lat="45.25205" lon="2.53946">
        <ele>972.20001220703</ele>
        <time>2013-07-13T09:47:59.000Z</time>
      </trkpt>
      <trkpt lat="45.25186" lon="2.53917">
        <ele>971.59997558594</ele>
        <time>2013-07-13T09:48:10.000Z</time>
      </trkpt>
      <trkpt lat="45.25186" lon="2.53916">
        <ele>971.40002441406</ele>
        <time>2013-07-13T09:48:12.000Z</time>
      </trkpt>
      <trkpt lat="45.25183" lon="2.53915">
        <ele>971.59997558594</ele>
        <time>2013-07-13T09:50:05.000Z</time>
      </trkpt>
      <trkpt lat="45.25146" lon="2.53853">
        <ele>968.59997558594</ele>
        <time>2013-07-13T09:50:23.000Z</time>
      </trkpt>
      <trkpt lat="45.25127" lon="2.53824">
        <ele>967.40002441406</ele>
        <time>2013-07-13T09:50:32.000Z</time>
      </trkpt>
      <trkpt lat="45.25183" lon="2.53829">
        <ele>964.20001220703</ele>
        <time>2013-07-13T09:50:43.000Z</time>
      </trkpt>
      <trkpt lat="45.25237" lon="2.53831">
        <ele>963</ele>
        <time>2013-07-13T09:50:51.000Z</time>
      </trkpt>
      <trkpt lat="45.2529" lon="2.53818">
        <ele>963.79998779297</ele>
        <time>2013-07-13T09:51:03.000Z</time>
      </trkpt>
      <trkpt lat="45.25304" lon="2.53811">
        <ele>963.79998779297</ele>
        <time>2013-07-13T09:51:07.000Z</time>
      </trkpt>
      <trkpt lat="45.25315" lon="2.53802">
        <ele>963.79998779297</ele>
        <time>2013-07-13T09:51:10.000Z</time>
      </trkpt>
      <trkpt lat="45.2534" lon="2.53765">
        <ele>962</ele>
        <time>2013-07-13T09:51:15.000Z</time>
      </trkpt>
      <trkpt lat="45.25342" lon="2.53754">
        <ele>961</ele>
        <time>2013-07-13T09:51:16.000Z</time>
      </trkpt>
      <trkpt lat="45.25339" lon="2.53706">
        <ele>959.20001220703</ele>
        <time>2013-07-13T09:51:20.000Z</time>
      </trkpt>
      <trkpt lat="45.25336" lon="2.53669">
        <ele>957.79998779297</ele>
        <time>2013-07-13T09:51:23.000Z</time>
      </trkpt>
      <trkpt lat="45.25347" lon="2.53591">
        <ele>953.59997558594</ele>
        <time>2013-07-13T09:51:30.000Z</time>
      </trkpt>
      <trkpt lat="45.25377" lon="2.53554">
        <ele>949.59997558594</ele>
        <time>2013-07-13T09:51:35.000Z</time>
      </trkpt>
      <trkpt lat="45.25397" lon="2.53535">
        <ele>947.59997558594</ele>
        <time>2013-07-13T09:51:37.000Z</time>
      </trkpt>
      <trkpt lat="45.25441" lon="2.53473">
        <ele>945.79998779297</ele>
        <time>2013-07-13T09:51:43.000Z</time>
      </trkpt>
      <trkpt lat="45.25479" lon="2.53415">
        <ele>945.40002441406</ele>
        <time>2013-07-13T09:51:49.000Z</time>
      </trkpt>
      <trkpt lat="45.2551" lon="2.53347">
        <ele>944</ele>
        <time>2013-07-13T09:51:55.000Z</time>
      </trkpt>
      <trkpt lat="45.25539" lon="2.53276">
        <ele>940.59997558594</ele>
        <time>2013-07-13T09:52:01.000Z</time>
      </trkpt>
      <trkpt lat="45.25567" lon="2.53202">
        <ele>936.20001220703</ele>
        <time>2013-07-13T09:52:07.000Z</time>
      </trkpt>
      <trkpt lat="45.25602" lon="2.53137">
        <ele>933.20001220703</ele>
        <time>2013-07-13T09:52:13.000Z</time>
      </trkpt>
      <trkpt lat="45.25645" lon="2.53087">
        <ele>932.79998779297</ele>
        <time>2013-07-13T09:52:19.000Z</time>
      </trkpt>
      <trkpt lat="45.25693" lon="2.53038">
        <ele>932.59997558594</ele>
        <time>2013-07-13T09:52:26.000Z</time>
      </trkpt>
      <trkpt lat="45.25729" lon="2.53">
        <ele>933.40002441406</ele>
        <time>2013-07-13T09:52:32.000Z</time>
      </trkpt>
      <trkpt lat="45.25747" lon="2.52926">
        <ele>936.20001220703</ele>
        <time>2013-07-13T09:52:47.000Z</time>
      </trkpt>
      <trkpt lat="45.25746" lon="2.52847">
        <ele>939.79998779297</ele>
        <time>2013-07-13T09:53:03.000Z</time>
      </trkpt>
      <trkpt lat="45.25747" lon="2.5277">
        <ele>942</ele>
        <time>2013-07-13T09:53:18.000Z</time>
      </trkpt>
      <trkpt lat="45.25744" lon="2.52691">
        <ele>943</ele>
        <time>2013-07-13T09:53:32.000Z</time>
      </trkpt>
      <trkpt lat="45.25739" lon="2.52612">
        <ele>943.20001220703</ele>
        <time>2013-07-13T09:53:45.000Z</time>
      </trkpt>
      <trkpt lat="45.25736" lon="2.52531">
        <ele>944</ele>
        <time>2013-07-13T09:53:58.000Z</time>
      </trkpt>
      <trkpt lat="45.25739" lon="2.52451">
        <ele>944.40002441406</ele>
        <time>2013-07-13T09:54:09.000Z</time>
      </trkpt>
      <trkpt lat="45.25749" lon="2.52422">
        <ele>945.79998779297</ele>
        <time>2013-07-13T09:54:13.000Z</time>
      </trkpt>
      <trkpt lat="45.258" lon="2.52389">
        <ele>946.40002441406</ele>
        <time>2013-07-13T09:54:23.000Z</time>
      </trkpt>
      <trkpt lat="45.25806" lon="2.52389">
        <ele>946.59997558594</ele>
        <time>2013-07-13T09:54:24.000Z</time>
      </trkpt>
      <trkpt lat="45.25848" lon="2.52377">
        <ele>947.20001220703</ele>
        <time>2013-07-13T09:54:31.000Z</time>
      </trkpt>
      <trkpt lat="45.25891" lon="2.5233">
        <ele>945</ele>
        <time>2013-07-13T09:54:38.000Z</time>
      </trkpt>
      <trkpt lat="45.25934" lon="2.52271">
        <ele>942.79998779297</ele>
        <time>2013-07-13T09:54:46.000Z</time>
      </trkpt>
      <trkpt lat="45.25968" lon="2.52205">
        <ele>941</ele>
        <time>2013-07-13T09:54:54.000Z</time>
      </trkpt>
      <trkpt lat="45.25996" lon="2.52129">
        <ele>940.20001220703</ele>
        <time>2013-07-13T09:55:02.000Z</time>
      </trkpt>
      <trkpt lat="45.26024" lon="2.52056">
        <ele>938.20001220703</ele>
        <time>2013-07-13T09:55:10.000Z</time>
      </trkpt>
      <trkpt lat="45.26069" lon="2.5201">
        <ele>937</ele>
        <time>2013-07-13T09:55:17.000Z</time>
      </trkpt>
      <trkpt lat="45.26116" lon="2.52015">
        <ele>935.79998779297</ele>
        <time>2013-07-13T09:55:23.000Z</time>
      </trkpt>
      <trkpt lat="45.26169" lon="2.52039">
        <ele>934.20001220703</ele>
        <time>2013-07-13T09:55:30.000Z</time>
      </trkpt>
      <trkpt lat="45.26224" lon="2.52066">
        <ele>931.20001220703</ele>
        <time>2013-07-13T09:55:37.000Z</time>
      </trkpt>
      <trkpt lat="45.26279" lon="2.52092">
        <ele>929.59997558594</ele>
        <time>2013-07-13T09:55:44.000Z</time>
      </trkpt>
      <trkpt lat="45.26332" lon="2.52118">
        <ele>930</ele>
        <time>2013-07-13T09:55:51.000Z</time>
      </trkpt>
      <trkpt lat="45.26388" lon="2.52146">
        <ele>926</ele>
        <time>2013-07-13T09:55:58.000Z</time>
      </trkpt>
      <trkpt lat="45.26444" lon="2.52173">
        <ele>920.20001220703</ele>
        <time>2013-07-13T09:56:04.000Z</time>
      </trkpt>
      <trkpt lat="45.26475" lon="2.52181">
        <ele>917.79998779297</ele>
        <time>2013-07-13T09:56:07.000Z</time>
      </trkpt>
      <trkpt lat="45.26529" lon="2.52163">
        <ele>916.79998779297</ele>
        <time>2013-07-13T09:56:12.000Z</time>
      </trkpt>
      <trkpt lat="45.26555" lon="2.5214">
        <ele>917.59997558594</ele>
        <time>2013-07-13T09:56:15.000Z</time>
      </trkpt>
      <trkpt lat="45.26596" lon="2.52088">
        <ele>917</ele>
        <time>2013-07-13T09:56:22.000Z</time>
      </trkpt>
      <trkpt lat="45.26639" lon="2.52042">
        <ele>916.20001220703</ele>
        <time>2013-07-13T09:56:29.000Z</time>
      </trkpt>
      <trkpt lat="45.26659" lon="2.52025">
        <ele>915.79998779297</ele>
        <time>2013-07-13T09:56:32.000Z</time>
      </trkpt>
      <trkpt lat="45.26689" lon="2.52018">
        <ele>916.40002441406</ele>
        <time>2013-07-13T09:56:36.000Z</time>
      </trkpt>
      <trkpt lat="45.26696" lon="2.52016">
        <ele>916.59997558594</ele>
        <time>2013-07-13T09:56:37.000Z</time>
      </trkpt>
      <trkpt lat="45.26728" lon="2.51987">
        <ele>916</ele>
        <time>2013-07-13T09:56:42.000Z</time>
      </trkpt>
      <trkpt lat="45.26772" lon="2.51937">
        <ele>915.59997558594</ele>
        <time>2013-07-13T09:56:49.000Z</time>
      </trkpt>
      <trkpt lat="45.26819" lon="2.51894">
        <ele>915.20001220703</ele>
        <time>2013-07-13T09:56:56.000Z</time>
      </trkpt>
      <trkpt lat="45.26869" lon="2.51842">
        <ele>913.79998779297</ele>
        <time>2013-07-13T09:57:03.000Z</time>
      </trkpt>
      <trkpt lat="45.26914" lon="2.51795">
        <ele>912.40002441406</ele>
        <time>2013-07-13T09:57:09.000Z</time>
      </trkpt>
      <trkpt lat="45.26965" lon="2.51762">
        <ele>912.20001220703</ele>
        <time>2013-07-13T09:57:16.000Z</time>
      </trkpt>
      <trkpt lat="45.27021" lon="2.51741">
        <ele>913</ele>
        <time>2013-07-13T09:57:24.000Z</time>
      </trkpt>
      <trkpt lat="45.27075" lon="2.51734">
        <ele>913</ele>
        <time>2013-07-13T09:57:32.000Z</time>
      </trkpt>
      <trkpt lat="45.2713" lon="2.51752">
        <ele>911.20001220703</ele>
        <time>2013-07-13T09:57:39.000Z</time>
      </trkpt>
      <trkpt lat="45.27189" lon="2.51771">
        <ele>908.59997558594</ele>
        <time>2013-07-13T09:57:46.000Z</time>
      </trkpt>
      <trkpt lat="45.27198" lon="2.5177">
        <ele>908.20001220703</ele>
        <time>2013-07-13T09:57:47.000Z</time>
      </trkpt>
      <trkpt lat="45.27252" lon="2.5175">
        <ele>905.79998779297</ele>
        <time>2013-07-13T09:57:53.000Z</time>
      </trkpt>
      <trkpt lat="45.27304" lon="2.51731">
        <ele>904.20001220703</ele>
        <time>2013-07-13T09:57:59.000Z</time>
      </trkpt>
      <trkpt lat="45.27313" lon="2.51731">
        <ele>904</ele>
        <time>2013-07-13T09:58:00.000Z</time>
      </trkpt>
      <trkpt lat="45.27368" lon="2.51771">
        <ele>900</ele>
        <time>2013-07-13T09:58:07.000Z</time>
      </trkpt>
      <trkpt lat="45.27387" lon="2.51793">
        <ele>898.59997558594</ele>
        <time>2013-07-13T09:58:10.000Z</time>
      </trkpt>
      <trkpt lat="45.27393" lon="2.51799">
        <ele>898</ele>
        <time>2013-07-13T09:58:11.000Z</time>
      </trkpt>
      <trkpt lat="45.27447" lon="2.51811">
        <ele>895.79998779297</ele>
        <time>2013-07-13T09:58:17.000Z</time>
      </trkpt>
      <trkpt lat="45.27498" lon="2.51814">
        <ele>894.20001220703</ele>
        <time>2013-07-13T09:58:23.000Z</time>
      </trkpt>
      <trkpt lat="45.27548" lon="2.5178">
        <ele>890.79998779297</ele>
        <time>2013-07-13T09:58:31.000Z</time>
      </trkpt>
      <trkpt lat="45.2756" lon="2.51774">
        <ele>890.20001220703</ele>
        <time>2013-07-13T09:58:33.000Z</time>
      </trkpt>
      <trkpt lat="45.27586" lon="2.51768">
        <ele>888.40002441406</ele>
        <time>2013-07-13T09:58:37.000Z</time>
      </trkpt>
      <trkpt lat="45.27626" lon="2.51787">
        <ele>884.79998779297</ele>
        <time>2013-07-13T09:58:42.000Z</time>
      </trkpt>
      <trkpt lat="45.2768" lon="2.51822">
        <ele>881.79998779297</ele>
        <time>2013-07-13T09:58:48.000Z</time>
      </trkpt>
      <trkpt lat="45.27738" lon="2.51848">
        <ele>880.59997558594</ele>
        <time>2013-07-13T09:58:54.000Z</time>
      </trkpt>
      <trkpt lat="45.2778" lon="2.51858">
        <ele>878.40002441406</ele>
        <time>2013-07-13T09:58:58.000Z</time>
      </trkpt>
      <trkpt lat="45.27832" lon="2.51839">
        <ele>875</ele>
        <time>2013-07-13T09:59:03.000Z</time>
      </trkpt>
      <trkpt lat="45.2785" lon="2.51823">
        <ele>874.59997558594</ele>
        <time>2013-07-13T09:59:05.000Z</time>
      </trkpt>
      <trkpt lat="45.27895" lon="2.51779">
        <ele>873.40002441406</ele>
        <time>2013-07-13T09:59:10.000Z</time>
      </trkpt>
      <trkpt lat="45.27942" lon="2.51737">
        <ele>874.20001220703</ele>
        <time>2013-07-13T09:59:16.000Z</time>
      </trkpt>
      <trkpt lat="45.27968" lon="2.51723">
        <ele>875.79998779297</ele>
        <time>2013-07-13T09:59:19.000Z</time>
      </trkpt>
      <trkpt lat="45.28026" lon="2.51717">
        <ele>880</ele>
        <time>2013-07-13T09:59:29.000Z</time>
      </trkpt>
      <trkpt lat="45.28078" lon="2.51738">
        <ele>884</ele>
        <time>2013-07-13T09:59:42.000Z</time>
      </trkpt>
      <trkpt lat="45.28115" lon="2.51793">
        <ele>887.40002441406</ele>
        <time>2013-07-13T09:59:56.000Z</time>
      </trkpt>
      <trkpt lat="45.28161" lon="2.51833">
        <ele>887.79998779297</ele>
        <time>2013-07-13T10:00:10.000Z</time>
      </trkpt>
      <trkpt lat="45.28218" lon="2.51848">
        <ele>888.59997558594</ele>
        <time>2013-07-13T10:00:23.000Z</time>
      </trkpt>
      <trkpt lat="45.28253" lon="2.51849">
        <ele>888.79998779297</ele>
        <time>2013-07-13T10:00:30.000Z</time>
      </trkpt>
      <trkpt lat="45.28307" lon="2.51836">
        <ele>887</ele>
        <time>2013-07-13T10:00:40.000Z</time>
      </trkpt>
      <trkpt lat="45.28363" lon="2.51833">
        <ele>886.20001220703</ele>
        <time>2013-07-13T10:00:49.000Z</time>
      </trkpt>
      <trkpt lat="45.28417" lon="2.51853">
        <ele>884.59997558594</ele>
        <time>2013-07-13T10:00:56.000Z</time>
      </trkpt>
      <trkpt lat="45.28474" lon="2.51873">
        <ele>881.79998779297</ele>
        <time>2013-07-13T10:01:03.000Z</time>
      </trkpt>
      <trkpt lat="45.28532" lon="2.5188">
        <ele>879</ele>
        <time>2013-07-13T10:01:10.000Z</time>
      </trkpt>
      <trkpt lat="45.2859" lon="2.51869">
        <ele>876.40002441406</ele>
        <time>2013-07-13T10:01:17.000Z</time>
      </trkpt>
      <trkpt lat="45.28646" lon="2.51855">
        <ele>872.40002441406</ele>
        <time>2013-07-13T10:01:24.000Z</time>
      </trkpt>
      <trkpt lat="45.28708" lon="2.51838">
        <ele>866.40002441406</ele>
        <time>2013-07-13T10:01:31.000Z</time>
      </trkpt>
      <trkpt lat="45.28725" lon="2.51829">
        <ele>865</ele>
        <time>2013-07-13T10:01:33.000Z</time>
      </trkpt>
      <trkpt lat="45.28755" lon="2.51797">
        <ele>865</ele>
        <time>2013-07-13T10:01:37.000Z</time>
      </trkpt>
      <trkpt lat="45.28801" lon="2.51747">
        <ele>865</ele>
        <time>2013-07-13T10:01:43.000Z</time>
      </trkpt>
      <trkpt lat="45.28857" lon="2.51721">
        <ele>861.20001220703</ele>
        <time>2013-07-13T10:01:49.000Z</time>
      </trkpt>
      <trkpt lat="45.28911" lon="2.51685">
        <ele>859.79998779297</ele>
        <time>2013-07-13T10:01:55.000Z</time>
      </trkpt>
      <trkpt lat="45.28965" lon="2.5164">
        <ele>854.59997558594</ele>
        <time>2013-07-13T10:02:01.000Z</time>
      </trkpt>
      <trkpt lat="45.28992" lon="2.51612">
        <ele>852</ele>
        <time>2013-07-13T10:02:04.000Z</time>
      </trkpt>
      <trkpt lat="45.29033" lon="2.51552">
        <ele>849</ele>
        <time>2013-07-13T10:02:09.000Z</time>
      </trkpt>
      <trkpt lat="45.29065" lon="2.51482">
        <ele>846</ele>
        <time>2013-07-13T10:02:14.000Z</time>
      </trkpt>
      <trkpt lat="45.29094" lon="2.51407">
        <ele>841.79998779297</ele>
        <time>2013-07-13T10:02:19.000Z</time>
      </trkpt>
      <trkpt lat="45.29118" lon="2.5133">
        <ele>841</ele>
        <time>2013-07-13T10:02:24.000Z</time>
      </trkpt>
      <trkpt lat="45.29142" lon="2.51254">
        <ele>840.40002441406</ele>
        <time>2013-07-13T10:02:29.000Z</time>
      </trkpt>
      <trkpt lat="45.29165" lon="2.51179">
        <ele>837</ele>
        <time>2013-07-13T10:02:34.000Z</time>
      </trkpt>
      <trkpt lat="45.29176" lon="2.51149">
        <ele>834.59997558594</ele>
        <time>2013-07-13T10:02:36.000Z</time>
      </trkpt>
      <trkpt lat="45.29214" lon="2.51087">
        <ele>827.79998779297</ele>
        <time>2013-07-13T10:02:41.000Z</time>
      </trkpt>
      <trkpt lat="45.2924" lon="2.51016">
        <ele>828.79998779297</ele>
        <time>2013-07-13T10:02:46.000Z</time>
      </trkpt>
      <trkpt lat="45.29259" lon="2.50933">
        <ele>828</ele>
        <time>2013-07-13T10:02:52.000Z</time>
      </trkpt>
      <trkpt lat="45.2927" lon="2.50847">
        <ele>827.59997558594</ele>
        <time>2013-07-13T10:02:58.000Z</time>
      </trkpt>
      <trkpt lat="45.29274" lon="2.50807">
        <ele>827.79998779297</ele>
        <time>2013-07-13T10:03:01.000Z</time>
      </trkpt>
      <trkpt lat="45.29294" lon="2.50759">
        <ele>825.59997558594</ele>
        <time>2013-07-13T10:03:05.000Z</time>
      </trkpt>
      <trkpt lat="45.29322" lon="2.50694">
        <ele>823.59997558594</ele>
        <time>2013-07-13T10:03:11.000Z</time>
      </trkpt>
      <trkpt lat="45.29339" lon="2.50612">
        <ele>821.79998779297</ele>
        <time>2013-07-13T10:03:18.000Z</time>
      </trkpt>
      <trkpt lat="45.29362" lon="2.50541">
        <ele>821.59997558594</ele>
        <time>2013-07-13T10:03:25.000Z</time>
      </trkpt>
      <trkpt lat="45.29388" lon="2.50464">
        <ele>823</ele>
        <time>2013-07-13T10:03:33.000Z</time>
      </trkpt>
      <trkpt lat="45.29427" lon="2.504">
        <ele>821</ele>
        <time>2013-07-13T10:03:41.000Z</time>
      </trkpt>
      <trkpt lat="45.2947" lon="2.5035">
        <ele>818.40002441406</ele>
        <time>2013-07-13T10:03:48.000Z</time>
      </trkpt>
      <trkpt lat="45.29516" lon="2.50298">
        <ele>817.40002441406</ele>
        <time>2013-07-13T10:03:55.000Z</time>
      </trkpt>
      <trkpt lat="45.2956" lon="2.50249">
        <ele>817.40002441406</ele>
        <time>2013-07-13T10:04:02.000Z</time>
      </trkpt>
      <trkpt lat="45.29612" lon="2.50209">
        <ele>812.20001220703</ele>
        <time>2013-07-13T10:04:10.000Z</time>
      </trkpt>
      <trkpt lat="45.29624" lon="2.50198">
        <ele>811</ele>
        <time>2013-07-13T10:04:12.000Z</time>
      </trkpt>
      <trkpt lat="45.29646" lon="2.50169">
        <ele>809</ele>
        <time>2013-07-13T10:04:17.000Z</time>
      </trkpt>
      <trkpt lat="45.29659" lon="2.50131">
        <ele>807.40002441406</ele>
        <time>2013-07-13T10:04:22.000Z</time>
      </trkpt>
      <trkpt lat="45.29662" lon="2.50082">
        <ele>808.20001220703</ele>
        <time>2013-07-13T10:04:28.000Z</time>
      </trkpt>
      <trkpt lat="45.29701" lon="2.50024">
        <ele>808.40002441406</ele>
        <time>2013-07-13T10:04:37.000Z</time>
      </trkpt>
      <trkpt lat="45.29756" lon="2.50002">
        <ele>804.20001220703</ele>
        <time>2013-07-13T10:04:46.000Z</time>
      </trkpt>
      <trkpt lat="45.29768" lon="2.49998">
        <ele>803.59997558594</ele>
        <time>2013-07-13T10:04:48.000Z</time>
      </trkpt>
      <trkpt lat="45.29823" lon="2.49989">
        <ele>800.20001220703</ele>
        <time>2013-07-13T10:04:57.000Z</time>
      </trkpt>
      <trkpt lat="45.29858" lon="2.49984">
        <ele>797.59997558594</ele>
        <time>2013-07-13T10:05:03.000Z</time>
      </trkpt>
      <trkpt lat="45.29908" lon="2.4997">
        <ele>794.59997558594</ele>
        <time>2013-07-13T10:05:11.000Z</time>
      </trkpt>
      <trkpt lat="45.29963" lon="2.4994">
        <ele>791.20001220703</ele>
        <time>2013-07-13T10:05:18.000Z</time>
      </trkpt>
      <trkpt lat="45.30018" lon="2.49922">
        <ele>785.59997558594</ele>
        <time>2013-07-13T10:05:25.000Z</time>
      </trkpt>
      <trkpt lat="45.30033" lon="2.49922">
        <ele>783.40002441406</ele>
        <time>2013-07-13T10:05:27.000Z</time>
      </trkpt>
      <trkpt lat="45.30074" lon="2.4993">
        <ele>776.59997558594</ele>
        <time>2013-07-13T10:05:32.000Z</time>
      </trkpt>
      <trkpt lat="45.30115" lon="2.49915">
        <ele>774.79998779297</ele>
        <time>2013-07-13T10:05:36.000Z</time>
      </trkpt>
      <trkpt lat="45.30164" lon="2.49883">
        <ele>774.20001220703</ele>
        <time>2013-07-13T10:05:41.000Z</time>
      </trkpt>
      <trkpt lat="45.30184" lon="2.49875">
        <ele>774.20001220703</ele>
        <time>2013-07-13T10:05:43.000Z</time>
      </trkpt>
      <trkpt lat="45.30224" lon="2.49885">
        <ele>773.59997558594</ele>
        <time>2013-07-13T10:05:47.000Z</time>
      </trkpt>
      <trkpt lat="45.3028" lon="2.49899">
        <ele>772.59997558594</ele>
        <time>2013-07-13T10:05:53.000Z</time>
      </trkpt>
      <trkpt lat="45.30288" lon="2.49898">
        <ele>772.59997558594</ele>
        <time>2013-07-13T10:05:54.000Z</time>
      </trkpt>
      <trkpt lat="45.30331" lon="2.49852">
        <ele>772</ele>
        <time>2013-07-13T10:06:00.000Z</time>
      </trkpt>
      <trkpt lat="45.30336" lon="2.49841">
        <ele>772.20001220703</ele>
        <time>2013-07-13T10:06:01.000Z</time>
      </trkpt>
      <trkpt lat="45.30374" lon="2.49777">
        <ele>774.20001220703</ele>
        <time>2013-07-13T10:06:08.000Z</time>
      </trkpt>
      <trkpt lat="45.30423" lon="2.49729">
        <ele>775.59997558594</ele>
        <time>2013-07-13T10:06:17.000Z</time>
      </trkpt>
      <trkpt lat="45.3047" lon="2.49689">
        <ele>775.40002441406</ele>
        <time>2013-07-13T10:06:27.000Z</time>
      </trkpt>
      <trkpt lat="45.30499" lon="2.49669">
        <ele>773.20001220703</ele>
        <time>2013-07-13T10:06:32.000Z</time>
      </trkpt>
      <trkpt lat="45.30555" lon="2.4964">
        <ele>769.79998779297</ele>
        <time>2013-07-13T10:06:40.000Z</time>
      </trkpt>
      <trkpt lat="45.30611" lon="2.49612">
        <ele>766</ele>
        <time>2013-07-13T10:06:46.000Z</time>
      </trkpt>
      <trkpt lat="45.30671" lon="2.49581">
        <ele>761.59997558594</ele>
        <time>2013-07-13T10:06:52.000Z</time>
      </trkpt>
      <trkpt lat="45.30729" lon="2.49552">
        <ele>759</ele>
        <time>2013-07-13T10:06:58.000Z</time>
      </trkpt>
      <trkpt lat="45.30787" lon="2.49524">
        <ele>758.20001220703</ele>
        <time>2013-07-13T10:07:05.000Z</time>
      </trkpt>
      <trkpt lat="45.30844" lon="2.49497">
        <ele>758</ele>
        <time>2013-07-13T10:07:13.000Z</time>
      </trkpt>
      <trkpt lat="45.30895" lon="2.49472">
        <ele>758</ele>
        <time>2013-07-13T10:07:21.000Z</time>
      </trkpt>
      <trkpt lat="45.30949" lon="2.49445">
        <ele>757.59997558594</ele>
        <time>2013-07-13T10:07:29.000Z</time>
      </trkpt>
      <trkpt lat="45.31002" lon="2.4942">
        <ele>757</ele>
        <time>2013-07-13T10:07:37.000Z</time>
      </trkpt>
      <trkpt lat="45.31059" lon="2.49392">
        <ele>759.40002441406</ele>
        <time>2013-07-13T10:07:46.000Z</time>
      </trkpt>
      <trkpt lat="45.31115" lon="2.49365">
        <ele>761</ele>
        <time>2013-07-13T10:07:56.000Z</time>
      </trkpt>
      <trkpt lat="45.31168" lon="2.49341">
        <ele>763</ele>
        <time>2013-07-13T10:08:06.000Z</time>
      </trkpt>
      <trkpt lat="45.31185" lon="2.49337">
        <ele>763.40002441406</ele>
        <time>2013-07-13T10:08:09.000Z</time>
      </trkpt>
      <trkpt lat="45.31212" lon="2.49337">
        <ele>764</ele>
        <time>2013-07-13T10:08:14.000Z</time>
      </trkpt>
      <trkpt lat="45.31268" lon="2.49347">
        <ele>763.79998779297</ele>
        <time>2013-07-13T10:08:23.000Z</time>
      </trkpt>
      <trkpt lat="45.3133" lon="2.49357">
        <ele>759.59997558594</ele>
        <time>2013-07-13T10:08:31.000Z</time>
      </trkpt>
      <trkpt lat="45.31385" lon="2.49364">
        <ele>756.40002441406</ele>
        <time>2013-07-13T10:08:37.000Z</time>
      </trkpt>
      <trkpt lat="45.31442" lon="2.49375">
        <ele>753</ele>
        <time>2013-07-13T10:08:44.000Z</time>
      </trkpt>
      <trkpt lat="45.315" lon="2.49387">
        <ele>748.79998779297</ele>
        <time>2013-07-13T10:08:51.000Z</time>
      </trkpt>
      <trkpt lat="45.31551" lon="2.49413">
        <ele>744</ele>
        <time>2013-07-13T10:08:57.000Z</time>
      </trkpt>
      <trkpt lat="45.31602" lon="2.49446">
        <ele>742.40002441406</ele>
        <time>2013-07-13T10:09:04.000Z</time>
      </trkpt>
      <trkpt lat="45.31653" lon="2.49494">
        <ele>739.59997558594</ele>
        <time>2013-07-13T10:09:12.000Z</time>
      </trkpt>
      <trkpt lat="45.3167" lon="2.49518">
        <ele>737.40002441406</ele>
        <time>2013-07-13T10:09:15.000Z</time>
      </trkpt>
      <trkpt lat="45.31704" lon="2.4958">
        <ele>728.79998779297</ele>
        <time>2013-07-13T10:09:22.000Z</time>
      </trkpt>
      <trkpt lat="45.31748" lon="2.49625">
        <ele>719.79998779297</ele>
        <time>2013-07-13T10:09:30.000Z</time>
      </trkpt>
      <trkpt lat="45.31775" lon="2.49636">
        <ele>714.20001220703</ele>
        <time>2013-07-13T10:09:34.000Z</time>
      </trkpt>
      <trkpt lat="45.31834" lon="2.49637">
        <ele>704.79998779297</ele>
        <time>2013-07-13T10:09:41.000Z</time>
      </trkpt>
      <trkpt lat="45.31866" lon="2.49631">
        <ele>700</ele>
        <time>2013-07-13T10:09:45.000Z</time>
      </trkpt>
      <trkpt lat="45.31915" lon="2.4958">
        <ele>698.79998779297</ele>
        <time>2013-07-13T10:09:51.000Z</time>
      </trkpt>
      <trkpt lat="45.31934" lon="2.49537">
        <ele>700.20001220703</ele>
        <time>2013-07-13T10:09:55.000Z</time>
      </trkpt>
      <trkpt lat="45.31952" lon="2.49497">
        <ele>700.40002441406</ele>
        <time>2013-07-13T10:09:59.000Z</time>
      </trkpt>
      <trkpt lat="45.31976" lon="2.49467">
        <ele>695.79998779297</ele>
        <time>2013-07-13T10:10:03.000Z</time>
      </trkpt>
      <trkpt lat="45.32019" lon="2.49415">
        <ele>688</ele>
        <time>2013-07-13T10:10:10.000Z</time>
      </trkpt>
      <trkpt lat="45.32046" lon="2.49347">
        <ele>684.20001220703</ele>
        <time>2013-07-13T10:10:16.000Z</time>
      </trkpt>
      <trkpt lat="45.32077" lon="2.49276">
        <ele>679.59997558594</ele>
        <time>2013-07-13T10:10:23.000Z</time>
      </trkpt>
      <trkpt lat="45.32103" lon="2.49202">
        <ele>674</ele>
        <time>2013-07-13T10:10:30.000Z</time>
      </trkpt>
      <trkpt lat="45.32122" lon="2.49127">
        <ele>669</ele>
        <time>2013-07-13T10:10:36.000Z</time>
      </trkpt>
      <trkpt lat="45.32131" lon="2.49051">
        <ele>664</ele>
        <time>2013-07-13T10:10:42.000Z</time>
      </trkpt>
      <trkpt lat="45.32137" lon="2.48974">
        <ele>658.59997558594</ele>
        <time>2013-07-13T10:10:48.000Z</time>
      </trkpt>
      <trkpt lat="45.32143" lon="2.48898">
        <ele>653.59997558594</ele>
        <time>2013-07-13T10:10:54.000Z</time>
      </trkpt>
      <trkpt lat="45.32143" lon="2.48865">
        <ele>652.40002441406</ele>
        <time>2013-07-13T10:10:57.000Z</time>
      </trkpt>
      <trkpt lat="45.32134" lon="2.48826">
        <ele>654.79998779297</ele>
        <time>2013-07-13T10:11:01.000Z</time>
      </trkpt>
      <trkpt lat="45.32134" lon="2.48792">
        <ele>655.20001220703</ele>
        <time>2013-07-13T10:11:06.000Z</time>
      </trkpt>
      <trkpt lat="45.32168" lon="2.48765">
        <ele>644.40002441406</ele>
        <time>2013-07-13T10:11:18.000Z</time>
      </trkpt>
      <trkpt lat="45.32174" lon="2.4879">
        <ele>642.20001220703</ele>
        <time>2013-07-13T10:11:21.000Z</time>
      </trkpt>
      <trkpt lat="45.32192" lon="2.48884">
        <ele>638</ele>
        <time>2013-07-13T10:11:25.000Z</time>
      </trkpt>
      <trkpt lat="45.32208" lon="2.48957">
        <ele>637</ele>
        <time>2013-07-13T10:11:29.000Z</time>
      </trkpt>
      <trkpt lat="45.32246" lon="2.4899">
        <ele>629.20001220703</ele>
        <time>2013-07-13T10:11:35.000Z</time>
      </trkpt>
      <trkpt lat="45.32264" lon="2.48972">
        <ele>624.59997558594</ele>
        <time>2013-07-13T10:11:38.000Z</time>
      </trkpt>
      <trkpt lat="45.32276" lon="2.48917">
        <ele>618.59997558594</ele>
        <time>2013-07-13T10:11:44.000Z</time>
      </trkpt>
      <trkpt lat="45.32277" lon="2.48886">
        <ele>616.40002441406</ele>
        <time>2013-07-13T10:11:47.000Z</time>
      </trkpt>
      <trkpt lat="45.32324" lon="2.4886">
        <ele>603.59997558594</ele>
        <time>2013-07-13T10:11:57.000Z</time>
      </trkpt>
      <trkpt lat="45.3234" lon="2.4888">
        <ele>602.20001220703</ele>
        <time>2013-07-13T10:11:59.000Z</time>
      </trkpt>
      <trkpt lat="45.32384" lon="2.4894">
        <ele>593.79998779297</ele>
        <time>2013-07-13T10:12:05.000Z</time>
      </trkpt>
      <trkpt lat="45.32417" lon="2.49005">
        <ele>583.20001220703</ele>
        <time>2013-07-13T10:12:11.000Z</time>
      </trkpt>
      <trkpt lat="45.32422" lon="2.48988">
        <ele>582</ele>
        <time>2013-07-13T10:12:18.000Z</time>
      </trkpt>
      <trkpt lat="45.3242" lon="2.4891">
        <ele>581.79998779297</ele>
        <time>2013-07-13T10:12:24.000Z</time>
      </trkpt>
      <trkpt lat="45.32424" lon="2.48884">
        <ele>579.20001220703</ele>
        <time>2013-07-13T10:12:26.000Z</time>
      </trkpt>
      <trkpt lat="45.32465" lon="2.48823">
        <ele>571.20001220703</ele>
        <time>2013-07-13T10:12:32.000Z</time>
      </trkpt>
      <trkpt lat="45.32473" lon="2.48816">
        <ele>570.20001220703</ele>
        <time>2013-07-13T10:12:33.000Z</time>
      </trkpt>
      <trkpt lat="45.3252" lon="2.48769">
        <ele>566.40002441406</ele>
        <time>2013-07-13T10:12:39.000Z</time>
      </trkpt>
      <trkpt lat="45.32536" lon="2.4874">
        <ele>565</ele>
        <time>2013-07-13T10:12:42.000Z</time>
      </trkpt>
      <trkpt lat="45.3255" lon="2.48664">
        <ele>563.40002441406</ele>
        <time>2013-07-13T10:12:48.000Z</time>
      </trkpt>
      <trkpt lat="45.32553" lon="2.48582">
        <ele>562.79998779297</ele>
        <time>2013-07-13T10:12:54.000Z</time>
      </trkpt>
      <trkpt lat="45.32557" lon="2.48528">
        <ele>560.40002441406</ele>
        <time>2013-07-13T10:12:58.000Z</time>
      </trkpt>
      <trkpt lat="45.32603" lon="2.48489">
        <ele>551.79998779297</ele>
        <time>2013-07-13T10:13:05.000Z</time>
      </trkpt>
      <trkpt lat="45.32646" lon="2.48543">
        <ele>547.79998779297</ele>
        <time>2013-07-13T10:13:12.000Z</time>
      </trkpt>
      <trkpt lat="45.32697" lon="2.48561">
        <ele>541.40002441406</ele>
        <time>2013-07-13T10:13:19.000Z</time>
      </trkpt>
      <trkpt lat="45.32753" lon="2.48546">
        <ele>532.40002441406</ele>
        <time>2013-07-13T10:13:26.000Z</time>
      </trkpt>
      <trkpt lat="45.32796" lon="2.48587">
        <ele>531</ele>
        <time>2013-07-13T10:13:32.000Z</time>
      </trkpt>
      <trkpt lat="45.32836" lon="2.48652">
        <ele>528.40002441406</ele>
        <time>2013-07-13T10:13:38.000Z</time>
      </trkpt>
      <trkpt lat="45.32872" lon="2.4871">
        <ele>527</ele>
        <time>2013-07-13T10:13:43.000Z</time>
      </trkpt>
      <trkpt lat="45.3288" lon="2.48718">
        <ele>527</ele>
        <time>2013-07-13T10:13:44.000Z</time>
      </trkpt>
      <trkpt lat="45.32938" lon="2.48737">
        <ele>527</ele>
        <time>2013-07-13T10:13:51.000Z</time>
      </trkpt>
      <trkpt lat="45.32945" lon="2.48735">
        <ele>526.59997558594</ele>
        <time>2013-07-13T10:13:52.000Z</time>
      </trkpt>
      <trkpt lat="45.32997" lon="2.48713">
        <ele>523.20001220703</ele>
        <time>2013-07-13T10:13:59.000Z</time>
      </trkpt>
      <trkpt lat="45.33042" lon="2.48689">
        <ele>519.40002441406</ele>
        <time>2013-07-13T10:14:04.000Z</time>
      </trkpt>
      <trkpt lat="45.33078" lon="2.48629">
        <ele>514.79998779297</ele>
        <time>2013-07-13T10:14:09.000Z</time>
      </trkpt>
      <trkpt lat="45.33106" lon="2.48561">
        <ele>513.20001220703</ele>
        <time>2013-07-13T10:14:14.000Z</time>
      </trkpt>
      <trkpt lat="45.33136" lon="2.48489">
        <ele>512.40002441406</ele>
        <time>2013-07-13T10:14:20.000Z</time>
      </trkpt>
      <trkpt lat="45.33169" lon="2.4842">
        <ele>512.20001220703</ele>
        <time>2013-07-13T10:14:27.000Z</time>
      </trkpt>
      <trkpt lat="45.33206" lon="2.48356">
        <ele>512.79998779297</ele>
        <time>2013-07-13T10:14:36.000Z</time>
      </trkpt>
      <trkpt lat="45.33232" lon="2.48335">
        <ele>513.59997558594</ele>
        <time>2013-07-13T10:14:40.000Z</time>
      </trkpt>
      <trkpt lat="45.33289" lon="2.48309">
        <ele>512.59997558594</ele>
        <time>2013-07-13T10:14:48.000Z</time>
      </trkpt>
      <trkpt lat="45.33341" lon="2.48284">
        <ele>509.79998779297</ele>
        <time>2013-07-13T10:14:56.000Z</time>
      </trkpt>
      <trkpt lat="45.33363" lon="2.48272">
        <ele>507.79998779297</ele>
        <time>2013-07-13T10:14:59.000Z</time>
      </trkpt>
      <trkpt lat="45.33402" lon="2.48212">
        <ele>503.39999389648</ele>
        <time>2013-07-13T10:15:05.000Z</time>
      </trkpt>
      <trkpt lat="45.33407" lon="2.48202">
        <ele>503</ele>
        <time>2013-07-13T10:15:06.000Z</time>
      </trkpt>
      <trkpt lat="45.33436" lon="2.48135">
        <ele>500.79998779297</ele>
        <time>2013-07-13T10:15:13.000Z</time>
      </trkpt>
      <trkpt lat="45.33464" lon="2.48081">
        <ele>498.79998779297</ele>
        <time>2013-07-13T10:15:19.000Z</time>
      </trkpt>
      <trkpt lat="45.33474" lon="2.48052">
        <ele>497.79998779297</ele>
        <time>2013-07-13T10:15:23.000Z</time>
      </trkpt>
      <trkpt lat="45.33497" lon="2.48016">
        <ele>496</ele>
        <time>2013-07-13T10:15:31.000Z</time>
      </trkpt>
      <trkpt lat="45.335" lon="2.47942">
        <ele>493.79998779297</ele>
        <time>2013-07-13T10:15:39.000Z</time>
      </trkpt>
      <trkpt lat="45.33476" lon="2.47873">
        <ele>492.20001220703</ele>
        <time>2013-07-13T10:15:50.000Z</time>
      </trkpt>
      <trkpt lat="45.33481" lon="2.47863">
        <ele>491.60000610352</ele>
        <time>2013-07-13T10:15:56.000Z</time>
      </trkpt>
      <trkpt lat="45.33482" lon="2.47861">
        <ele>491.60000610352</ele>
        <time>2013-07-13T10:16:00.000Z</time>
      </trkpt>
      <trkpt lat="45.33481" lon="2.47858">
        <ele>491.39999389648</ele>
        <time>2013-07-13T10:17:22.000Z</time>
      </trkpt>
      <trkpt lat="45.33475" lon="2.47826">
        <ele>490.60000610352</ele>
        <time>2013-07-13T10:17:37.000Z</time>
      </trkpt>
      <trkpt lat="45.3348" lon="2.47825">
        <ele>490.39999389648</ele>
        <time>2013-07-13T10:17:42.000Z</time>
      </trkpt>
      <trkpt lat="45.33485" lon="2.47831">
        <ele>490.39999389648</ele>
        <time>2013-07-13T10:17:46.000Z</time>
      </trkpt>
      <trkpt lat="45.33487" lon="2.47834">
        <ele>490.39999389648</ele>
        <time>2013-07-13T10:17:50.000Z</time>
      </trkpt>
    </trkseg>
  </trk>
</gpx>